Observation data for Bootleg on 05/15/2018      Previous  Date  Next       Current Mesonet Observations  Soil Data  Daily Summary Page  Observations in Plain Language
KBO1 150500Z 09007KT 22/10 A30 RMK A01 T02150100  RH  048%=      5-min Rain = 0
KBO1 150501Z 12009KT 21/10 A30 RMK A01 T02110101  RH  049%=      5-min Rain = 0
KBO1 150502Z 13008KT 21/10 A3001 RMK A01 T02070101  RH  051%=      5-min Rain = 0
KBO1 150503Z 12008KT 20/10 A3001 RMK A01 T02040102  RH  052%=      5-min Rain = 0
KBO1 150504Z 13008KT 20/10 A3001 RMK A01 T02020103  RH  053%=      5-min Rain = 0
KBO1 150505Z 15011G16KT 20/10 A3001 RMK A01 T02000103  RH  053%=      5-min Rain = 0
KBO1 150506Z 15014KT 20/10 A3001 RMK A01 T01990104  RH  054%=      5-min Rain = 0
KBO1 150507Z 15015KT 20/10 A30 RMK A01 T01990104  RH  054%=      5-min Rain = 0
KBO1 150508Z 15015KT 20/10 A30 RMK A01 T01990104  RH  054%=      5-min Rain = 0
KBO1 150509Z 15016KT 20/10 A30 RMK A01 T01980104  RH  055%=      5-min Rain = 0
KBO1 150510Z 15016KT 20/10 A30 RMK A01 T01970104  RH  055%=      5-min Rain = 0
KBO1 150511Z 15016KT 20/10 A30 RMK A01 T01970104  RH  055%=      5-min Rain = 0
KBO1 150512Z 14015KT 20/10 A30 RMK A01 T01970104  RH  055%=      5-min Rain = 0
KBO1 150513Z 15015KT 20/11 A30 RMK A01 T01960105  RH  055%=      5-min Rain = 0
KBO1 150514Z 14016KT 20/11 A30 RMK A01 T01960105  RH  056%=      5-min Rain = 0
KBO1 150515Z 15018KT 20/11 A30 RMK A01 T01950105  RH  056%=      5-min Rain = 0
KBO1 150516Z 15018KT 20/11 A30 RMK A01 T01950106  RH  056%=      5-min Rain = 0
KBO1 150517Z 14016KT 20/11 A30 RMK A01 T01950106  RH  056%=      5-min Rain = 0
KBO1 150518Z 14018KT 20/11 A30 RMK A01 T01950106  RH  056%=      5-min Rain = 0
KBO1 150519Z 14017G22KT 19/11 A30 RMK A01 T01940106  RH  057%=      5-min Rain = 0
KBO1 150520Z 14017KT 19/11 A30 RMK A01 T01940107  RH  057%=      5-min Rain = 0
KBO1 150521Z 15016KT 19/11 A30 RMK A01 T01940106  RH  057%=      5-min Rain = 0
KBO1 150522Z 15019KT 19/11 A30 RMK A01 T01930106  RH  057%=      5-min Rain = 0
KBO1 150523Z 15015KT 19/11 A30 RMK A01 T01940107  RH  057%=      5-min Rain = 0
KBO1 150524Z 15016G22KT 19/11 A30 RMK A01 T01930107  RH  057%=      5-min Rain = 0
KBO1 150525Z 15017KT 19/11 A30 RMK A01 T01930107  RH  057%=      5-min Rain = 0
KBO1 150526Z 15016KT 19/11 A30 RMK A01 T01930107  RH  057%=      5-min Rain = 0
KBO1 150527Z 15018KT 19/11 A30 RMK A01 T01930107  RH  058%=      5-min Rain = 0
KBO1 150528Z 15018KT 19/11 A30 RMK A01 T01930107  RH  058%=      5-min Rain = 0
KBO1 150529Z 15018KT 19/11 A30 RMK A01 T01930107  RH  058%=      5-min Rain = 0
KBO1 150530Z 15017KT 19/11 A30 RMK A01 T01930107  RH  058%=      5-min Rain = 0
KBO1 150531Z 15016KT 19/11 A30 RMK A01 T01930108  RH  058%=      5-min Rain = 0
KBO1 150532Z 15015KT 19/11 A30 RMK A01 T01930108  RH  058%=      5-min Rain = 0
KBO1 150533Z 15017KT 19/11 A30 RMK A01 T01930108  RH  058%=      5-min Rain = 0
KBO1 150534Z 15018KT 19/11 A30 RMK A01 T01930109  RH  058%=      5-min Rain = 0
KBO1 150535Z 15019KT 19/11 A30 RMK A01 T01930108  RH  058%=      5-min Rain = 0
KBO1 150536Z 15016KT 19/11 A30 RMK A01 T01930108  RH  058%=      5-min Rain = 0
KBO1 150537Z 15015KT 19/11 A30 RMK A01 T01930108  RH  058%=      5-min Rain = 0
KBO1 150538Z 16016KT 19/11 A30 RMK A01 T01930108  RH  058%=      5-min Rain = 0
KBO1 150539Z 16018KT 19/11 A30 RMK A01 T01920108  RH  058%=      5-min Rain = 0
KBO1 150540Z 16017KT 19/11 A30 RMK A01 T01920108  RH  058%=      5-min Rain = 0
KBO1 150541Z 15019KT 19/11 A30 RMK A01 T01920108  RH  058%=      5-min Rain = 0
KBO1 150542Z 15021KT 19/11 A30 RMK A01 T01920108  RH  058%=      5-min Rain = 0
KBO1 150543Z 15024KT 19/11 A30 RMK A01 T01930108  RH  058%=      5-min Rain = 0
KBO1 150544Z 15025KT 19/11 A2999 RMK A01 T01940109  RH  058%=      5-min Rain = 0
KBO1 150545Z 15020G29KT 20/11 A2999 RMK A01 T01950109  RH  058%=      5-min Rain = 0
KBO1 150546Z 16023G28KT 20/11 A2999 RMK A01 T01950109  RH  058%=      5-min Rain = 0
KBO1 150547Z 16022KT 20/11 A2999 RMK A01 T01950109  RH  057%=      5-min Rain = 0
KBO1 150548Z 15023KT 20/11 A2999 RMK A01 T01960109  RH  057%=      5-min Rain = 0
KBO1 150549Z 15019KT 20/11 A30 RMK A01 T01950110  RH  058%=      5-min Rain = 0
KBO1 150550Z 15019KT 20/11 A2999 RMK A01 T01960110  RH  058%=      5-min Rain = 0
KBO1 150551Z 15021G26KT 20/11 A2999 RMK A01 T01950110  RH  058%=      5-min Rain = 0
KBO1 150552Z 15024KT 19/11 A2999 RMK A01 T01940110  RH  058%=      5-min Rain = 0
KBO1 150553Z 15027KT 19/11 A2999 RMK A01 T01940110  RH  058%=      5-min Rain = 0
KBO1 150554Z 16021KT 19/11 A30 RMK A01 T01940111  RH  058%=      5-min Rain = 0
KBO1 150555Z 16017KT 19/11 A30 RMK A01 T01940110  RH  058%=      5-min Rain = 0
KBO1 150556Z 16015KT 19/11 A30 RMK A01 T01940110  RH  058%=      5-min Rain = 0
KBO1 150557Z 15014KT 19/11 A3001 RMK A01 T01940111  RH  059%=      5-min Rain = 0
KBO1 150558Z 15014KT 19/11 A3001 RMK A01 T01930111  RH  059%=      5-min Rain = 0
KBO1 150559Z 15014KT 19/11 A3001 RMK A01 T01930111  RH  059%=      5-min Rain = 0
KBO1 150600Z 14013KT 19/11 A3001 RMK A01 T01920112  RH  060%=      5-min Rain = 0
KBO1 150601Z 14012KT 19/11 A3001 RMK A01 T01920112  RH  060%=      5-min Rain = 0
KBO1 150602Z 14012KT 19/11 A3001 RMK A01 T01910112  RH  060%=      5-min Rain = 0
KBO1 150603Z 14012KT 19/11 A3001 RMK A01 T01910112  RH  060%=      5-min Rain = 0
KBO1 150604Z 15014KT 19/11 A3001 RMK A01 T01900112  RH  061%=      5-min Rain = 0
KBO1 150605Z 15014KT 19/11 A3001 RMK A01 T01900113  RH  061%=      5-min Rain = 0
KBO1 150606Z 15013KT 19/11 A3001 RMK A01 T01900113  RH  061%=      5-min Rain = 0
KBO1 150607Z 15013KT 19/11 A3001 RMK A01 T01900113  RH  061%=      5-min Rain = 0
KBO1 150608Z 15012KT 19/11 A3001 RMK A01 T01890113  RH  061%=      5-min Rain = 0
KBO1 150609Z 15012KT 19/11 A3001 RMK A01 T01890114  RH  061%=      5-min Rain = 0
KBO1 150610Z 15013KT 19/11 A3001 RMK A01 T01880113  RH  062%=      5-min Rain = 0
KBO1 150611Z 15012KT 19/11 A3001 RMK A01 T01880114  RH  062%=      5-min Rain = 0
KBO1 150612Z 15013KT 19/11 A3001 RMK A01 T01870113  RH  062%=      5-min Rain = 0
KBO1 150613Z 15012KT 19/11 A3001 RMK A01 T01870114  RH  062%=      5-min Rain = 0
KBO1 150614Z 15013KT 19/11 A3001 RMK A01 T01860113  RH  063%=      5-min Rain = 0
KBO1 150615Z 15013KT 19/11 A3001 RMK A01 T01860114  RH  063%=      5-min Rain = 0
KBO1 150616Z 15013KT 19/11 A3001 RMK A01 T01850114  RH  063%=      5-min Rain = 0
KBO1 150617Z 15012KT 19/11 A3001 RMK A01 T01850114  RH  063%=      5-min Rain = 0
KBO1 150618Z 15012KT 19/11 A3001 RMK A01 T01850114  RH  063%=      5-min Rain = 0
KBO1 150619Z 15012KT 19/11 A3001 RMK A01 T01850114  RH  063%=      5-min Rain = 0
KBO1 150620Z 14012KT 19/11 A30 RMK A01 T01850114  RH  063%=      5-min Rain = 0
KBO1 150621Z 15012KT 19/11 A3001 RMK A01 T01850114  RH  064%=      5-min Rain = 0
KBO1 150622Z 15014KT 19/12 A30 RMK A01 T01850115  RH  064%=      5-min Rain = 0
KBO1 150623Z 15013KT 19/12 A30 RMK A01 T01860115  RH  063%=      5-min Rain = 0
KBO1 150624Z 14011KT 19/12 A3001 RMK A01 T01860115  RH  063%=      5-min Rain = 0
KBO1 150625Z 15010KT 19/11 A3001 RMK A01 T01860114  RH  063%=      5-min Rain = 0
KBO1 150626Z 15011KT 19/11 A3001 RMK A01 T01850114  RH  063%=      5-min Rain = 0
KBO1 150627Z 15012KT 19/11 A30 RMK A01 T01850114  RH  063%=      5-min Rain = 0
KBO1 150628Z 15015KT 19/11 A30 RMK A01 T01850114  RH  063%=      5-min Rain = 0
KBO1 150629Z 15014KT 19/12 A30 RMK A01 T01860115  RH  063%=      5-min Rain = 0
KBO1 150630Z 15011G16KT 19/12 A30 RMK A01 T01880115  RH  062%=      5-min Rain = 0
KBO1 150631Z 15013KT 19/11 A30 RMK A01 T01880114  RH  062%=      5-min Rain = 0
KBO1 150632Z 14014KT 19/11 A30 RMK A01 T01880114  RH  062%=      5-min Rain = 0
KBO1 150633Z 14013KT 19/11 A30 RMK A01 T01880114  RH  062%=      5-min Rain = 0
KBO1 150634Z 14014KT 19/11 A30 RMK A01 T01880114  RH  062%=      5-min Rain = 0
KBO1 150635Z 14012KT 19/11 A30 RMK A01 T01880114  RH  062%=      5-min Rain = 0
KBO1 150636Z 14013KT 19/11 A30 RMK A01 T01880114  RH  062%=      5-min Rain = 0
KBO1 150637Z 14013KT 19/11 A30 RMK A01 T01880114  RH  062%=      5-min Rain = 0
KBO1 150638Z 14015KT 19/11 A30 RMK A01 T01880114  RH  062%=      5-min Rain = 0
KBO1 150639Z 13015KT 19/11 A30 RMK A01 T01880114  RH  062%=      5-min Rain = 0
KBO1 150640Z 14015KT 19/11 A30 RMK A01 T01890114  RH  062%=      5-min Rain = 0
KBO1 150641Z 13015KT 19/11 A30 RMK A01 T01890114  RH  062%=      5-min Rain = 0
KBO1 150642Z 14015KT 19/12 A30 RMK A01 T01890115  RH  062%=      5-min Rain = 0
KBO1 150643Z 13013KT 19/11 A30 RMK A01 T01890114  RH  062%=      5-min Rain = 0
KBO1 150644Z 14013KT 19/11 A30 RMK A01 T01890114  RH  062%=      5-min Rain = 0
KBO1 150645Z 14014KT 19/11 A30 RMK A01 T01890114  RH  062%=      5-min Rain = 0
KBO1 150646Z 14014KT 19/11 A2999 RMK A01 T01880114  RH  062%=      5-min Rain = 0
KBO1 150647Z 14015KT 19/11 A2999 RMK A01 T01880114  RH  062%=      5-min Rain = 0
KBO1 150648Z 14014KT 19/11 A30 RMK A01 T01890114  RH  062%=      5-min Rain = 0
KBO1 150649Z 14014KT 19/11 A30 RMK A01 T01890114  RH  062%=      5-min Rain = 0
KBO1 150650Z 15013KT 19/11 A30 RMK A01 T01890114  RH  062%=      5-min Rain = 0
KBO1 150651Z 14013KT 19/11 A30 RMK A01 T01890114  RH  062%=      5-min Rain = 0
KBO1 150652Z 15013KT 19/11 A30 RMK A01 T01880114  RH  062%=      5-min Rain = 0
KBO1 150653Z 15012KT 19/11 A30 RMK A01 T01870114  RH  062%=      5-min Rain = 0
KBO1 150654Z 15013KT 19/11 A30 RMK A01 T01860114  RH  063%=      5-min Rain = 0
KBO1 150655Z 15012KT 19/11 A30 RMK A01 T01860114  RH  063%=      5-min Rain = 0
KBO1 150656Z 15012KT 19/11 A30 RMK A01 T01860114  RH  063%=      5-min Rain = 0
KBO1 150657Z 14011KT 19/11 A30 RMK A01 T01850114  RH  063%=      5-min Rain = 0
KBO1 150658Z 15013KT 19/11 A30 RMK A01 T01850114  RH  063%=      5-min Rain = 0
KBO1 150659Z 15016KT 19/11 A2999 RMK A01 T01850114  RH  063%=      5-min Rain = 0
KBO1 150700Z 15013KT 19/11 A30 RMK A01 T01870114  RH  062%=      5-min Rain = 0
KBO1 150701Z 15011KT 19/11 A30 RMK A01 T01880114  RH  062%=      5-min Rain = 0
KBO1 150702Z 15012KT 19/11 A30 RMK A01 T01860114  RH  063%=      5-min Rain = 0
KBO1 150703Z 15012KT 19/11 A30 RMK A01 T01860114  RH  063%=      5-min Rain = 0
KBO1 150704Z 15012KT 19/11 A30 RMK A01 T01850114  RH  063%=      5-min Rain = 0
KBO1 150705Z 15012KT 19/11 A30 RMK A01 T01860114  RH  063%=      5-min Rain = 0
KBO1 150706Z 14011KT 19/11 A30 RMK A01 T01850114  RH  063%=      5-min Rain = 0
KBO1 150707Z 15012KT 19/11 A30 RMK A01 T01850114  RH  063%=      5-min Rain = 0
KBO1 150708Z 15011KT 19/11 A30 RMK A01 T01850114  RH  063%=      5-min Rain = 0
KBO1 150709Z 15011KT 19/11 A30 RMK A01 T01850114  RH  063%=      5-min Rain = 0
KBO1 150710Z 15012KT 18/11 A30 RMK A01 T01840114  RH  063%=      5-min Rain = 0
KBO1 150711Z 15011KT 18/11 A30 RMK A01 T01830114  RH  064%=      5-min Rain = 0
KBO1 150712Z 15011KT 18/11 A30 RMK A01 T01830114  RH  064%=      5-min Rain = 0
KBO1 150713Z 15012KT 18/11 A2999 RMK A01 T01830114  RH  064%=      5-min Rain = 0
KBO1 150714Z 15014KT 18/11 A2999 RMK A01 T01830114  RH  064%=      5-min Rain = 0
KBO1 150715Z 15013KT 18/11 A2999 RMK A01 T01840114  RH  064%=      5-min Rain = 0
KBO1 150716Z 15013KT 18/11 A2999 RMK A01 T01840114  RH  064%=      5-min Rain = 0
KBO1 150717Z 15013KT 18/11 A2999 RMK A01 T01840114  RH  064%=      5-min Rain = 0
KBO1 150718Z 15012KT 18/11 A2999 RMK A01 T01840114  RH  064%=      5-min Rain = 0
KBO1 150719Z 15013KT 18/11 A2999 RMK A01 T01840114  RH  064%=      5-min Rain = 0
KBO1 150720Z 15012KT 18/11 A30 RMK A01 T01840114  RH  064%=      5-min Rain = 0
KBO1 150721Z 15012KT 18/11 A30 RMK A01 T01840114  RH  064%=      5-min Rain = 0
KBO1 150722Z 15011KT 18/11 A30 RMK A01 T01830114  RH  064%=      5-min Rain = 0
KBO1 150723Z 15011KT 18/11 A30 RMK A01 T01820114  RH  064%=      5-min Rain = 0
KBO1 150724Z 15012KT 18/11 A30 RMK A01 T01820114  RH  065%=      5-min Rain = 0
KBO1 150725Z 15011KT 18/12 A30 RMK A01 T01820115  RH  065%=      5-min Rain = 0
KBO1 150726Z 16010KT 18/11 A30 RMK A01 T01810114  RH  065%=      5-min Rain = 0
KBO1 150727Z 16011KT 18/12 A30 RMK A01 T01810115  RH  065%=      5-min Rain = 0
KBO1 150728Z 15011KT 18/12 A30 RMK A01 T01810115  RH  065%=      5-min Rain = 0
KBO1 150729Z 15010KT 18/12 A30 RMK A01 T01800115  RH  066%=      5-min Rain = 0
KBO1 150730Z 16012KT 18/12 A30 RMK A01 T01800115  RH  066%=      5-min Rain = 0
KBO1 150731Z 15012KT 18/12 A2999 RMK A01 T01800115  RH  066%=      5-min Rain = 0
KBO1 150732Z 16012KT 18/12 A2999 RMK A01 T01800115  RH  066%=      5-min Rain = 0
KBO1 150733Z 16013KT 18/12 A2999 RMK A01 T01810115  RH  066%=      5-min Rain = 0
KBO1 150734Z 16012KT 18/12 A2999 RMK A01 T01810116  RH  066%=      5-min Rain = 0
KBO1 150735Z 15012KT 18/12 A2999 RMK A01 T01800115  RH  066%=      5-min Rain = 0
KBO1 150736Z 16012KT 18/12 A2999 RMK A01 T01800115  RH  066%=      5-min Rain = 0
KBO1 150737Z 16011KT 18/12 A2999 RMK A01 T01800115  RH  066%=      5-min Rain = 0
KBO1 150738Z 15013KT 18/12 A2999 RMK A01 T01790115  RH  066%=      5-min Rain = 0
KBO1 150739Z 15013KT 18/12 A2999 RMK A01 T01790115  RH  066%=      5-min Rain = 0
KBO1 150740Z 15012KT 18/12 A2999 RMK A01 T01790115  RH  066%=      5-min Rain = 0
KBO1 150741Z 15012KT 18/12 A2999 RMK A01 T01790115  RH  066%=      5-min Rain = 0
KBO1 150742Z 15010KT 18/12 A2999 RMK A01 T01790115  RH  066%=      5-min Rain = 0
KBO1 150743Z 16012KT 18/11 A2999 RMK A01 T01780114  RH  066%=      5-min Rain = 0
KBO1 150744Z 15012KT 18/12 A2999 RMK A01 T01780115  RH  067%=      5-min Rain = 0
KBO1 150745Z 15010KT 18/12 A2999 RMK A01 T01770115  RH  067%=      5-min Rain = 0
KBO1 150746Z 15010KT 18/11 A2999 RMK A01 T01770114  RH  067%=      5-min Rain = 0
KBO1 150747Z 15010KT 18/11 A2999 RMK A01 T01760114  RH  067%=      5-min Rain = 0
KBO1 150748Z 15011KT 18/11 A2999 RMK A01 T01750114  RH  067%=      5-min Rain = 0
KBO1 150749Z 15009KT 18/11 A2999 RMK A01 T01750114  RH  067%=      5-min Rain = 0
KBO1 150750Z 15010KT 18/11 A2999 RMK A01 T01750114  RH  067%=      5-min Rain = 0
KBO1 150751Z 15011KT 17/11 A2999 RMK A01 T01740114  RH  068%=      5-min Rain = 0
KBO1 150752Z 16011KT 17/11 A2999 RMK A01 T01740114  RH  068%=      5-min Rain = 0
KBO1 150753Z 16012KT 17/11 A2999 RMK A01 T01740114  RH  068%=      5-min Rain = 0
KBO1 150754Z 15010KT 18/11 A2999 RMK A01 T01750114  RH  068%=      5-min Rain = 0
KBO1 150755Z 16012KT 18/11 A2999 RMK A01 T01750114  RH  067%=      5-min Rain = 0
KBO1 150756Z 16011KT 18/11 A2999 RMK A01 T01750114  RH  067%=      5-min Rain = 0
KBO1 150757Z 15010KT 17/11 A2999 RMK A01 T01740114  RH  068%=      5-min Rain = 0
KBO1 150758Z 15012KT 17/11 A2999 RMK A01 T01730114  RH  068%=      5-min Rain = 0
KBO1 150759Z 15012KT 17/11 A2999 RMK A01 T01730114  RH  068%=      5-min Rain = 0
KBO1 150800Z 15011KT 17/11 A2999 RMK A01 T01730114  RH  068%=      5-min Rain = 0
KBO1 150801Z 15010KT 17/11 A2999 RMK A01 T01730114  RH  068%=      5-min Rain = 0
KBO1 150802Z 15011KT 17/11 A2999 RMK A01 T01720114  RH  068%=      5-min Rain = 0
KBO1 150803Z 15012KT 17/11 A2999 RMK A01 T01720113  RH  069%=      5-min Rain = 0
KBO1 150804Z 15010KT 17/11 A2999 RMK A01 T01720113  RH  068%=      5-min Rain = 0
KBO1 150805Z 15011KT 17/11 A2999 RMK A01 T01720113  RH  069%=      5-min Rain = 0
KBO1 150806Z 16011KT 17/11 A2999 RMK A01 T01710113  RH  069%=      5-min Rain = 0
KBO1 150807Z 16011KT 17/11 A2999 RMK A01 T01710113  RH  069%=      5-min Rain = 0
KBO1 150808Z 16011KT 17/11 A2999 RMK A01 T01710113  RH  069%=      5-min Rain = 0
KBO1 150809Z 16011KT 17/11 A2999 RMK A01 T01710113  RH  069%=      5-min Rain = 0
KBO1 150810Z 16011KT 17/11 A2999 RMK A01 T01700113  RH  069%=      5-min Rain = 0
KBO1 150811Z 16010KT 17/11 A2999 RMK A01 T01710113  RH  069%=      5-min Rain = 0
KBO1 150812Z 16010KT 17/11 A2999 RMK A01 T01700113  RH  069%=      5-min Rain = 0
KBO1 150813Z 16010KT 17/11 A2999 RMK A01 T01700113  RH  069%=      5-min Rain = 0
KBO1 150814Z 16009KT 17/11 A2999 RMK A01 T01700113  RH  069%=      5-min Rain = 0
KBO1 150815Z 16010KT 17/11 A2999 RMK A01 T01700113  RH  069%=      5-min Rain = 0
KBO1 150816Z 16011KT 17/11 A2999 RMK A01 T01700112  RH  069%=      5-min Rain = 0
KBO1 150817Z 16010KT 17/11 A2999 RMK A01 T01690112  RH  069%=      5-min Rain = 0
KBO1 150818Z 16011KT 17/11 A2999 RMK A01 T01690112  RH  069%=      5-min Rain = 0
KBO1 150819Z 16011KT 17/11 A2999 RMK A01 T01680112  RH  069%=      5-min Rain = 0
KBO1 150820Z 16010KT 17/11 A2999 RMK A01 T01680111  RH  069%=      5-min Rain = 0
KBO1 150821Z 16011KT 17/11 A2999 RMK A01 T01680111  RH  069%=      5-min Rain = 0
KBO1 150822Z 16010KT 17/11 A2999 RMK A01 T01680111  RH  069%=      5-min Rain = 0
KBO1 150823Z 16010KT 17/11 A2999 RMK A01 T01680111  RH  069%=      5-min Rain = 0
KBO1 150824Z 16009KT 17/11 A2999 RMK A01 T01680111  RH  069%=      5-min Rain = 0
KBO1 150825Z 15008KT 17/11 A2999 RMK A01 T01680110  RH  069%=      5-min Rain = 0
KBO1 150826Z 15008KT 17/11 A2999 RMK A01 T01660110  RH  069%=      5-min Rain = 0
KBO1 150827Z 16009KT 17/11 A2999 RMK A01 T01660110  RH  069%=      5-min Rain = 0
KBO1 150828Z 15009KT 17/11 A2999 RMK A01 T01650110  RH  070%=      5-min Rain = 0
KBO1 150829Z 16009KT 17/11 A2999 RMK A01 T01650109  RH  070%=      5-min Rain = 0
KBO1 150830Z 16009KT 17/11 A2999 RMK A01 T01650109  RH  070%=      5-min Rain = 0
KBO1 150831Z 16009KT 16/11 A2999 RMK A01 T01640109  RH  070%=      5-min Rain = 0
KBO1 150832Z 16009KT 16/11 A2999 RMK A01 T01630108  RH  070%=      5-min Rain = 0
KBO1 150833Z 16009KT 16/11 A2999 RMK A01 T01630108  RH  070%=      5-min Rain = 0
KBO1 150834Z 16009KT 16/11 A2999 RMK A01 T01630108  RH  070%=      5-min Rain = 0
KBO1 150835Z 16009KT 16/11 A2999 RMK A01 T01620107  RH  070%=      5-min Rain = 0
KBO1 150836Z 16009KT 16/11 A2999 RMK A01 T01630107  RH  070%=      5-min Rain = 0
KBO1 150837Z 16009KT 16/11 A2999 RMK A01 T01620107  RH  070%=      5-min Rain = 0
KBO1 150838Z 16008KT 16/11 A2999 RMK A01 T01620106  RH  070%=      5-min Rain = 0
KBO1 150839Z 16009KT 16/11 A2999 RMK A01 T01610106  RH  070%=      5-min Rain = 0
KBO1 150840Z 16009KT 16/11 A2999 RMK A01 T01610106  RH  070%=      5-min Rain = 0
KBO1 150841Z 16010KT 16/11 A2999 RMK A01 T01610105  RH  070%=      5-min Rain = 0
KBO1 150842Z 16009KT 16/10 A2999 RMK A01 T01610104  RH  069%=      5-min Rain = 0
KBO1 150843Z 16010KT 16/10 A2999 RMK A01 T01610104  RH  069%=      5-min Rain = 0
KBO1 150844Z 16009KT 16/10 A2999 RMK A01 T01610104  RH  069%=      5-min Rain = 0
KBO1 150845Z 16010KT 16/10 A2999 RMK A01 T01600103  RH  069%=      5-min Rain = 0
KBO1 150846Z 16010KT 16/10 A2999 RMK A01 T01610103  RH  069%=      5-min Rain = 0
KBO1 150847Z 16010KT 16/10 A2999 RMK A01 T01610103  RH  069%=      5-min Rain = 0
KBO1 150848Z 16009KT 16/10 A2999 RMK A01 T01610103  RH  068%=      5-min Rain = 0
KBO1 150849Z 16009KT 16/10 A2999 RMK A01 T01610103  RH  068%=      5-min Rain = 0
KBO1 150850Z 16009KT 16/10 A2999 RMK A01 T01600103  RH  069%=      5-min Rain = 0
KBO1 150851Z 16010KT 16/10 A2999 RMK A01 T01590102  RH  069%=      5-min Rain = 0
KBO1 150852Z 16009KT 16/10 A2999 RMK A01 T01590102  RH  069%=      5-min Rain = 0
KBO1 150853Z 16009KT 16/10 A2999 RMK A01 T01580102  RH  069%=      5-min Rain = 0
KBO1 150854Z 16009KT 16/10 A2999 RMK A01 T01580102  RH  069%=      5-min Rain = 0
KBO1 150855Z 16008KT 16/10 A2999 RMK A01 T01580101  RH  069%=      5-min Rain = 0
KBO1 150856Z 16009KT 16/10 A2999 RMK A01 T01580101  RH  069%=      5-min Rain = 0
KBO1 150857Z 16009KT 16/10 A2999 RMK A01 T01570101  RH  069%=      5-min Rain = 0
KBO1 150858Z 16009KT 16/10 A2999 RMK A01 T01570100  RH  069%=      5-min Rain = 0
KBO1 150859Z 16009KT 16/10 A2999 RMK A01 T01570100  RH  068%=      5-min Rain = 0
KBO1 150900Z 16009KT 16/10 A2999 RMK A01 T01570100  RH  068%=      5-min Rain = 0
KBO1 150901Z 16009KT 16/10 A2999 RMK A01 T01570099  RH  069%=      5-min Rain = 0
KBO1 150902Z 16009KT 16/10 A2999 RMK A01 T01560099  RH  069%=      5-min Rain = 0
KBO1 150903Z 16009KT 16/10 A2999 RMK A01 T01570099  RH  069%=      5-min Rain = 0
KBO1 150904Z 16009KT 16/10 A2999 RMK A01 T01560099  RH  069%=      5-min Rain = 0
KBO1 150905Z 16010KT 16/10 A2999 RMK A01 T01560098  RH  069%=      5-min Rain = 0
KBO1 150906Z 17010KT 16/10 A2999 RMK A01 T01560098  RH  068%=      5-min Rain = 0
KBO1 150907Z 17009KT 16/10 A2999 RMK A01 T01560098  RH  068%=      5-min Rain = 0
KBO1 150908Z 17010KT 16/10 A2999 RMK A01 T01560097  RH  068%=      5-min Rain = 0
KBO1 150909Z 17009KT 16/10 A2999 RMK A01 T01560097  RH  068%=      5-min Rain = 0
KBO1 150910Z 17010KT 16/10 A2999 RMK A01 T01550097  RH  068%=      5-min Rain = 0
KBO1 150911Z 17010KT 16/10 A2999 RMK A01 T01550097  RH  068%=      5-min Rain = 0
KBO1 150912Z 17010KT 16/10 A2999 RMK A01 T01550097  RH  068%=      5-min Rain = 0
KBO1 150913Z 17010KT 15/10 A2999 RMK A01 T01540097  RH  068%=      5-min Rain = 0
KBO1 150914Z 17010KT 15/10 A2999 RMK A01 T01540096  RH  069%=      5-min Rain = 0
KBO1 150915Z 17009KT 15/10 A2999 RMK A01 T01530096  RH  069%=      5-min Rain = 0
KBO1 150916Z 17009KT 15/10 A2999 RMK A01 T01520096  RH  069%=      5-min Rain = 0
KBO1 150917Z 17009KT 15/10 A2999 RMK A01 T01520096  RH  069%=      5-min Rain = 0
KBO1 150918Z 17009KT 15/10 A2999 RMK A01 T01510095  RH  069%=      5-min Rain = 0
KBO1 150919Z 17009KT 15/10 A2999 RMK A01 T01510095  RH  069%=      5-min Rain = 0
KBO1 150920Z 17009KT 15/10 A2999 RMK A01 T01500095  RH  069%=      5-min Rain = 0
KBO1 150921Z 16009KT 15/10 A2999 RMK A01 T01500095  RH  069%=      5-min Rain = 0
KBO1 150922Z 16009KT 15/09 A2999 RMK A01 T01490094  RH  070%=      5-min Rain = 0
KBO1 150923Z 16009KT 15/09 A2998 RMK A01 T01490094  RH  070%=      5-min Rain = 0
KBO1 150924Z 17009KT 15/09 A2998 RMK A01 T01480093  RH  070%=      5-min Rain = 0
KBO1 150925Z 17009KT 15/09 A2998 RMK A01 T01470093  RH  070%=      5-min Rain = 0
KBO1 150926Z 17008KT 15/09 A2998 RMK A01 T01470093  RH  070%=      5-min Rain = 0
KBO1 150927Z 17008KT 15/09 A2998 RMK A01 T01460092  RH  070%=      5-min Rain = 0
KBO1 150928Z 18008KT 15/09 A2999 RMK A01 T01460092  RH  070%=      5-min Rain = 0
KBO1 150929Z 18007KT 15/09 A2999 RMK A01 T01460092  RH  070%=      5-min Rain = 0
KBO1 150930Z 19007KT 15/09 A2999 RMK A01 T01450091  RH  070%=      5-min Rain = 0
KBO1 150931Z 19007KT 14/09 A2999 RMK A01 T01440090  RH  070%=      5-min Rain = 0
KBO1 150932Z 20008KT 14/09 A2999 RMK A01 T01430090  RH  070%=      5-min Rain = 0
KBO1 150933Z 20009KT 14/09 A2999 RMK A01 T01430089  RH  070%=      5-min Rain = 0
KBO1 150934Z 20009KT 14/09 A2999 RMK A01 T01430088  RH  070%=      5-min Rain = 0
KBO1 150935Z 20009KT 14/09 A2999 RMK A01 T01440088  RH  069%=      5-min Rain = 0
KBO1 150936Z 20009KT 14/09 A2999 RMK A01 T01440088  RH  069%=      5-min Rain = 0
KBO1 150937Z 20009KT 14/09 A2999 RMK A01 T01440088  RH  069%=      5-min Rain = 0
KBO1 150938Z 20009KT 14/09 A2999 RMK A01 T01440088  RH  069%=      5-min Rain = 0
KBO1 150939Z 19010KT 14/09 A2999 RMK A01 T01440087  RH  069%=      5-min Rain = 0
KBO1 150940Z 19009KT 14/09 A2999 RMK A01 T01440087  RH  068%=      5-min Rain = 0
KBO1 150941Z 19010KT 14/09 A2999 RMK A01 T01440086  RH  068%=      5-min Rain = 0
KBO1 150942Z 19009KT 14/09 A2999 RMK A01 T01440086  RH  068%=      5-min Rain = 0
KBO1 150943Z 19009KT 14/09 A2999 RMK A01 T01430086  RH  068%=      5-min Rain = 0
KBO1 150944Z 19009KT 14/09 A2999 RMK A01 T01430086  RH  069%=      5-min Rain = 0
KBO1 150945Z 19009KT 14/09 A2999 RMK A01 T01420085  RH  069%=      5-min Rain = 0
KBO1 150946Z 19008KT 14/09 A2999 RMK A01 T01420085  RH  069%=      5-min Rain = 0
KBO1 150947Z 19009KT 14/09 A2999 RMK A01 T01410085  RH  069%=      5-min Rain = 0
KBO1 150948Z 19009KT 14/08 A2999 RMK A01 T01410084  RH  068%=      5-min Rain = 0
KBO1 150949Z 20009KT 14/08 A2999 RMK A01 T01410084  RH  068%=      5-min Rain = 0
KBO1 150950Z 19009KT 14/08 A2999 RMK A01 T01410084  RH  068%=      5-min Rain = 0
KBO1 150956Z 21010KT 14/08 A2999 RMK A01 T01400080  RH  067%=      5-min Rain = 0
KBO1 150957Z 20010KT 14/08 A2999 RMK A01 T01420079  RH  066%=      5-min Rain = 0
KBO1 150958Z 21011KT 14/08 A2999 RMK A01 T01430078  RH  065%=      5-min Rain = 0
KBO1 150959Z 20011KT 14/08 A2999 RMK A01 T01440078  RH  064%=      5-min Rain = 0
KBO1 151000Z 21011KT 15/08 A2999 RMK A01 T01450077  RH  064%=      5-min Rain = 0
KBO1 151001Z 20011KT 15/08 A2999 RMK A01 T01460077  RH  063%=      5-min Rain = 0
KBO1 151002Z 20011KT 15/08 A2999 RMK A01 T01470076  RH  063%=      5-min Rain = 0
KBO1 151003Z 20010KT 15/08 A2999 RMK A01 T01470076  RH  062%=      5-min Rain = 0
KBO1 151004Z 20010KT 15/08 A2999 RMK A01 T01470076  RH  062%=      5-min Rain = 0
KBO1 151005Z 20009KT 15/08 A2999 RMK A01 T01470076  RH  062%=      5-min Rain = 0
KBO1 151006Z 20009KT 15/08 A2999 RMK A01 T01460076  RH  062%=      5-min Rain = 0
KBO1 151007Z 20009KT 15/08 A2999 RMK A01 T01450075  RH  063%=      5-min Rain = 0
KBO1 151008Z 20010KT 15/08 A2999 RMK A01 T01450075  RH  063%=      5-min Rain = 0
KBO1 151009Z 20010KT 15/08 A2999 RMK A01 T01450075  RH  063%=      5-min Rain = 0
KBO1 151010Z 20009KT 14/07 A2999 RMK A01 T01440074  RH  063%=      5-min Rain = 0
KBO1 151011Z 20009KT 14/07 A2999 RMK A01 T01430074  RH  063%=      5-min Rain = 0
KBO1 151012Z 20008KT 14/07 A2999 RMK A01 T01420074  RH  063%=      5-min Rain = 0
KBO1 151013Z 20008KT 14/07 A2999 RMK A01 T01420073  RH  064%=      5-min Rain = 0
KBO1 151014Z 20008KT 14/07 A2999 RMK A01 T01410073  RH  064%=      5-min Rain = 0
KBO1 151015Z 20008KT 14/07 A2999 RMK A01 T01400073  RH  064%=      5-min Rain = 0
KBO1 151016Z 20008KT 14/07 A2999 RMK A01 T01390072  RH  064%=      5-min Rain = 0
KBO1 151017Z 20008KT 14/07 A2999 RMK A01 T01390072  RH  064%=      5-min Rain = 0
KBO1 151018Z 20009KT 14/07 A2999 RMK A01 T01380072  RH  064%=      5-min Rain = 0
KBO1 151019Z 20008KT 14/07 A2999 RMK A01 T01370071  RH  064%=      5-min Rain = 0
KBO1 151020Z 20008KT 14/07 A2999 RMK A01 T01370071  RH  065%=      5-min Rain = 0
KBO1 151021Z 19009KT 14/07 A2999 RMK A01 T01360071  RH  065%=      5-min Rain = 0
KBO1 151022Z 19009KT 14/07 A2999 RMK A01 T01360071  RH  065%=      5-min Rain = 0
KBO1 151023Z 20009KT 14/07 A2999 RMK A01 T01360070  RH  064%=      5-min Rain = 0
KBO1 151024Z 20009KT 14/07 A2999 RMK A01 T01360070  RH  064%=      5-min Rain = 0
KBO1 151025Z 21009KT 14/07 A2999 RMK A01 T01360069  RH  064%=      5-min Rain = 0
KBO1 151026Z 21009KT 14/07 A2999 RMK A01 T01360069  RH  064%=      5-min Rain = 0
KBO1 151027Z 21009KT 14/07 A2999 RMK A01 T01350068  RH  064%=      5-min Rain = 0
KBO1 151028Z 21009KT 14/07 A2999 RMK A01 T01350068  RH  064%=      5-min Rain = 0
KBO1 151029Z 22008KT 14/07 A2999 RMK A01 T01360068  RH  063%=      5-min Rain = 0
KBO1 151030Z 22009KT 14/07 A2999 RMK A01 T01350067  RH  063%=      5-min Rain = 0
KBO1 151031Z 22010KT 14/07 A2999 RMK A01 T01350067  RH  063%=      5-min Rain = 0
KBO1 151032Z 23011KT 14/07 A2999 RMK A01 T01350067  RH  063%=      5-min Rain = 0
KBO1 151033Z 23012KT 13/07 A2999 RMK A01 T01340066  RH  064%=      5-min Rain = 0
KBO1 151034Z 23012KT 13/07 A2999 RMK A01 T01330066  RH  064%=      5-min Rain = 0
KBO1 151035Z 24012KT 13/07 A2999 RMK A01 T01320065  RH  064%=      5-min Rain = 0
KBO1 151036Z 23012KT 13/07 A2999 RMK A01 T01310065  RH  064%=      5-min Rain = 0
KBO1 151037Z 23011KT 13/06 A2999 RMK A01 T01310063  RH  063%=      5-min Rain = 0
KBO1 151038Z 22012KT 13/06 A2999 RMK A01 T01320061  RH  062%=      5-min Rain = 0
KBO1 151039Z 22012KT 13/06 A2999 RMK A01 T01330060  RH  061%=      5-min Rain = 0
KBO1 151040Z 22012KT 14/06 A2999 RMK A01 T01350060  RH  060%=      5-min Rain = 0
KBO1 151041Z 22012KT 14/06 A2999 RMK A01 T01370060  RH  060%=      5-min Rain = 0
KBO1 151042Z 21011KT 14/06 A2999 RMK A01 T01390060  RH  059%=      5-min Rain = 0
KBO1 151043Z 22010KT 14/06 A2999 RMK A01 T01400059  RH  058%=      5-min Rain = 0
KBO1 151044Z 21010KT 14/06 A2999 RMK A01 T01400059  RH  058%=      5-min Rain = 0
KBO1 151045Z 21010KT 14/06 A2999 RMK A01 T01390059  RH  058%=      5-min Rain = 0
KBO1 151046Z 21009KT 14/06 A2999 RMK A01 T01380058  RH  059%=      5-min Rain = 0
KBO1 151047Z 21009KT 14/06 A2999 RMK A01 T01360058  RH  059%=      5-min Rain = 0
KBO1 151048Z 21008KT 14/06 A30 RMK A01 T01350058  RH  060%=      5-min Rain = 0
KBO1 151049Z 21007KT 13/06 A30 RMK A01 T01340058  RH  060%=      5-min Rain = 0
KBO1 151050Z 21007KT 13/06 A30 RMK A01 T01320058  RH  061%=      5-min Rain = 0
KBO1 151051Z 22008KT 13/06 A30 RMK A01 T01310058  RH  061%=      5-min Rain = 0
KBO1 151052Z 22008KT 13/06 A30 RMK A01 T01300058  RH  062%=      5-min Rain = 0
KBO1 151053Z 23008KT 13/06 A30 RMK A01 T01290057  RH  062%=      5-min Rain = 0
KBO1 151054Z 24010KT 13/06 A30 RMK A01 T01300057  RH  061%=      5-min Rain = 0
KBO1 151055Z 25010KT 13/06 A30 RMK A01 T01310057  RH  061%=      5-min Rain = 0
KBO1 151056Z 28010KT 13/06 A3001 RMK A01 T01310057  RH  061%=      5-min Rain = 0
KBO1 151057Z 31016KT 13/06 A3002 RMK A01 T01310056  RH  061%=      5-min Rain = 0
KBO1 151058Z 31017KT 13/06 A3002 RMK A01 T01300057  RH  061%=      5-min Rain = 0
KBO1 151059Z 31014KT 13/06 A3003 RMK A01 T01300058  RH  062%=      5-min Rain = 0
KBO1 151100Z 31014KT 13/06 A3003 RMK A01 T01320058  RH  061%=      5-min Rain = 0
KBO1 151101Z 30015KT 14/06 A3003 RMK A01 T01360057  RH  059%=      5-min Rain = 0
KBO1 151102Z 30013KT 14/05 A3002 RMK A01 T01440053  RH  055%=      5-min Rain = 0
KBO1 151103Z 28011KT 15/05 A3002 RMK A01 T01500051  RH  052%=      5-min Rain = 0
KBO1 151104Z 27010KT 15/05 A3002 RMK A01 T01540051  RH  050%=      5-min Rain = 0
KBO1 151105Z 28013KT 16/05 A3002 RMK A01 T01550049  RH  049%=      5-min Rain = 0
KBO1 151106Z 29015KT 16/04 A3002 RMK A01 T01600044  RH  046%=      5-min Rain = 0
KBO1 151107Z 29015KT 17/04 A3003 RMK A01 T01650043  RH  044%=      5-min Rain = 0
KBO1 151108Z 30017KT 17/04 A3003 RMK A01 T01690037  RH  042%=      5-min Rain = 0
KBO1 151109Z 30016G21KT 17/04 A3003 RMK A01 T01730037  RH  040%=      5-min Rain = 0
KBO1 151110Z 29018KT 18/04 A3003 RMK A01 T01760036  RH  039%=      5-min Rain = 0
KBO1 151111Z 29014KT 18/04 A3003 RMK A01 T01790041  RH  040%=      5-min Rain = 0
KBO1 151112Z 29013KT 18/04 A3003 RMK A01 T01800042  RH  040%=      5-min Rain = 0
KBO1 151113Z 29014KT 18/05 A3003 RMK A01 T01800045  RH  041%=      5-min Rain = 0
KBO1 151114Z 29012KT 18/05 A3003 RMK A01 T01770048  RH  043%=      5-min Rain = 0
KBO1 151115Z 30015KT 18/05 A3003 RMK A01 T01750053  RH  045%=      5-min Rain = 0
KBO1 151116Z 31016KT 17/06 A3003 RMK A01 T01730061  RH  048%=      5-min Rain = 0
KBO1 151117Z 31015KT 17/07 A3003 RMK A01 T01720065  RH  049%=      5-min Rain = 0
KBO1 151118Z 31014KT 17/07 A3003 RMK A01 T01710066  RH  050%=      5-min Rain = 0
KBO1 151119Z 31013KT 17/07 A3003 RMK A01 T01700068  RH  051%=      5-min Rain = 0
KBO1 151120Z 31012KT 17/07 A3003 RMK A01 T01680070  RH  052%=      5-min Rain = 0
KBO1 151121Z 31011KT 17/07 A3003 RMK A01 T01670072  RH  053%=      5-min Rain = 0
KBO1 151122Z 32013KT 17/07 A3004 RMK A01 T01660073  RH  054%=      5-min Rain = 0
KBO1 151123Z 32014KT 17/08 A3004 RMK A01 T01650076  RH  056%=      5-min Rain = 0
KBO1 151124Z 32012KT 16/08 A3004 RMK A01 T01640079  RH  057%=      5-min Rain = 0
KBO1 151125Z 32010KT 16/08 A3004 RMK A01 T01640079  RH  057%=      5-min Rain = 0
KBO1 151126Z 32011KT 16/08 A3004 RMK A01 T01630079  RH  058%=      5-min Rain = 0
KBO1 151127Z 32012KT 16/08 A3004 RMK A01 T01610080  RH  058%=      5-min Rain = 0
KBO1 151128Z 32012KT 16/08 A3004 RMK A01 T01600080  RH  059%=      5-min Rain = 0
KBO1 151129Z 33011KT 16/08 A3004 RMK A01 T01590080  RH  059%=      5-min Rain = 0
KBO1 151130Z 33011KT 16/08 A3004 RMK A01 T01590080  RH  060%=      5-min Rain = 0
KBO1 151131Z 33010KT 16/08 A3004 RMK A01 T01570080  RH  060%=      5-min Rain = 0
KBO1 151132Z 33009KT 16/08 A3004 RMK A01 T01560080  RH  060%=      5-min Rain = 0
KBO1 151133Z 33010KT 16/08 A3004 RMK A01 T01550080  RH  061%=      5-min Rain = 0
KBO1 151134Z 33011KT 15/08 A3004 RMK A01 T01540080  RH  061%=      5-min Rain = 0
KBO1 151135Z 33011KT 15/08 A3004 RMK A01 T01530081  RH  062%=      5-min Rain = 0
KBO1 151136Z 33010KT 15/08 A3004 RMK A01 T01530082  RH  062%=      5-min Rain = 0
KBO1 151137Z 33010KT 15/08 A3004 RMK A01 T01530083  RH  063%=      5-min Rain = 0
KBO1 151138Z 33010KT 15/08 A3004 RMK A01 T01530084  RH  063%=      5-min Rain = 0
KBO1 151139Z 33011KT 15/09 A3004 RMK A01 T01530085  RH  064%=      5-min Rain = 0
KBO1 151140Z 33010KT 15/09 A3004 RMK A01 T01530086  RH  064%=      5-min Rain = 0
KBO1 151141Z 33009KT 15/09 A3005 RMK A01 T01520087  RH  065%=      5-min Rain = 0
KBO1 151142Z 33009KT 15/09 A3005 RMK A01 T01510087  RH  065%=      5-min Rain = 0
KBO1 151143Z 33010KT 15/09 A3005 RMK A01 T01500088  RH  066%=      5-min Rain = 0
KBO1 151144Z 33011KT 15/09 A3005 RMK A01 T01500089  RH  067%=      5-min Rain = 0
KBO1 151145Z 34010KT 15/09 A3005 RMK A01 T01490089  RH  067%=      5-min Rain = 0
KBO1 151146Z 34010KT 15/09 A3005 RMK A01 T01490090  RH  068%=      5-min Rain = 0
KBO1 151147Z 34011KT 15/09 A3005 RMK A01 T01480090  RH  068%=      5-min Rain = 0
KBO1 151148Z 34009KT 15/09 A3005 RMK A01 T01480090  RH  068%=      5-min Rain = 0
KBO1 151149Z 33010KT 15/09 A3004 RMK A01 T01470090  RH  068%=      5-min Rain = 0
KBO1 151150Z 33010KT 15/09 A3005 RMK A01 T01460090  RH  069%=      5-min Rain = 0
KBO1 151151Z 33010KT 15/09 A3005 RMK A01 T01450090  RH  069%=      5-min Rain = 0
KBO1 151152Z 33010KT 15/09 A3005 RMK A01 T01450090  RH  070%=      5-min Rain = 0
KBO1 151153Z 33010KT 14/09 A3005 RMK A01 T01440090  RH  070%=      5-min Rain = 0
KBO1 151154Z 33009KT 14/09 A3005 RMK A01 T01440091  RH  070%=      5-min Rain = 0
KBO1 151155Z 33010KT 14/09 A3005 RMK A01 T01430091  RH  071%=      5-min Rain = 0
KBO1 151156Z 33010KT 14/09 A3005 RMK A01 T01420091  RH  071%=      5-min Rain = 0
KBO1 151157Z 33010KT 14/09 A3006 RMK A01 T01420091  RH  071%=      5-min Rain = 0
KBO1 151158Z 33010KT 14/09 A3006 RMK A01 T01410091  RH  072%=      5-min Rain = 0
KBO1 151159Z 33009KT 14/09 A3006 RMK A01 T01410091  RH  072%=      5-min Rain = 0
KBO1 151200Z 34010KT 14/09 A3006 RMK A01 T01410091  RH  072%=      5-min Rain = 0
KBO1 151201Z 34010KT 14/09 A3006 RMK A01 T01400092  RH  072%=      5-min Rain = 0
KBO1 151202Z 34011KT 14/09 A3006 RMK A01 T01400092  RH  073%=      5-min Rain = 0
KBO1 151203Z 34011KT 14/09 A3006 RMK A01 T01390092  RH  073%=      5-min Rain = 0
KBO1 151204Z 34011KT 14/09 A3006 RMK A01 T01390093  RH  074%=      5-min Rain = 0
KBO1 151205Z 34013KT 14/09 A3006 RMK A01 T01390094  RH  074%=      5-min Rain = 0
KBO1 151206Z 34012KT 14/10 A3006 RMK A01 T01390095  RH  074%=      5-min Rain = 0
KBO1 151207Z 34012KT 14/10 A3006 RMK A01 T01390095  RH  075%=      5-min Rain = 0
KBO1 151208Z 34011KT 14/10 A3006 RMK A01 T01390095  RH  075%=      5-min Rain = 0
KBO1 151209Z 34014KT 14/10 A3006 RMK A01 T01390095  RH  075%=      5-min Rain = 0
KBO1 151210Z 34016KT 14/10 A3006 RMK A01 T01390095  RH  075%=      5-min Rain = 0
KBO1 151211Z 35015KT 14/10 A3006 RMK A01 T01400095  RH  074%=      5-min Rain = 0
KBO1 151212Z 35015KT 14/10 A3006 RMK A01 T01400095  RH  074%=      5-min Rain = 0
KBO1 151213Z 35013KT 14/09 A3006 RMK A01 T01410094  RH  074%=      5-min Rain = 0
KBO1 151214Z 34015KT 14/09 A3006 RMK A01 T01410094  RH  073%=      5-min Rain = 0
KBO1 151215Z 34016KT 14/09 A3006 RMK A01 T01410093  RH  073%=      5-min Rain = 0
KBO1 151216Z 34016KT 14/09 A3007 RMK A01 T01410093  RH  073%=      5-min Rain = 0
KBO1 151217Z 35013KT 14/09 A3006 RMK A01 T01410093  RH  073%=      5-min Rain = 0
KBO1 151218Z 35013KT 14/09 A3006 RMK A01 T01410092  RH  073%=      5-min Rain = 0
KBO1 151219Z 34013KT 14/09 A3006 RMK A01 T01400092  RH  073%=      5-min Rain = 0
KBO1 151220Z 34014KT 14/09 A3006 RMK A01 T01410092  RH  073%=      5-min Rain = 0
KBO1 151221Z 34016KT 14/09 A3007 RMK A01 T01410092  RH  072%=      5-min Rain = 0
KBO1 151222Z 34014KT 14/09 A3006 RMK A01 T01400091  RH  072%=      5-min Rain = 0
KBO1 151223Z 34012KT 14/09 A3006 RMK A01 T01410091  RH  072%=      5-min Rain = 0
KBO1 151224Z 34013KT 14/09 A3007 RMK A01 T01410091  RH  072%=      5-min Rain = 0
KBO1 151225Z 34016G21KT 14/09 A3007 RMK A01 T01410090  RH  072%=      5-min Rain = 0
KBO1 151226Z 34016KT 14/09 A3007 RMK A01 T01410090  RH  071%=      5-min Rain = 0
KBO1 151227Z 34013KT 14/09 A3007 RMK A01 T01410090  RH  071%=      5-min Rain = 0
KBO1 151228Z 34014KT 14/09 A3007 RMK A01 T01410090  RH  071%=      5-min Rain = 0
KBO1 151229Z 34015KT 14/09 A3007 RMK A01 T01400090  RH  071%=      5-min Rain = 0
KBO1 151230Z 34015G20KT 14/09 A3007 RMK A01 T01410090  RH  071%=      5-min Rain = 0
KBO1 151231Z 34018KT 14/09 A3007 RMK A01 T01410089  RH  071%=      5-min Rain = 0
KBO1 151232Z 34016KT 14/09 A3007 RMK A01 T01410089  RH  071%=      5-min Rain = 0
KBO1 151233Z 34014KT 14/09 A3007 RMK A01 T01410089  RH  071%=      5-min Rain = 0
KBO1 151234Z 34012KT 14/09 A3007 RMK A01 T01410089  RH  071%=      5-min Rain = 0
KBO1 151235Z 34014KT 14/09 A3007 RMK A01 T01410089  RH  071%=      5-min Rain = 0
KBO1 151236Z 34016KT 14/09 A3007 RMK A01 T01410089  RH  071%=      5-min Rain = 0
KBO1 151237Z 33013KT 14/09 A3008 RMK A01 T01410089  RH  071%=      5-min Rain = 0
KBO1 151238Z 34015KT 14/09 A3008 RMK A01 T01420090  RH  071%=      5-min Rain = 0
KBO1 151239Z 34015KT 14/09 A3008 RMK A01 T01410089  RH  071%=      5-min Rain = 0
KBO1 151240Z 34014KT 14/09 A3008 RMK A01 T01410089  RH  071%=      5-min Rain = 0
KBO1 151241Z 34015KT 14/09 A3008 RMK A01 T01420090  RH  071%=      5-min Rain = 0
KBO1 151242Z 34015G20KT 14/09 A3008 RMK A01 T01420090  RH  071%=      5-min Rain = 0
KBO1 151243Z 34015KT 14/09 A3008 RMK A01 T01420090  RH  071%=      5-min Rain = 0
KBO1 151244Z 34016KT 14/09 A3008 RMK A01 T01420090  RH  071%=      5-min Rain = 0
KBO1 151245Z 34017KT 14/09 A3008 RMK A01 T01420090  RH  071%=      5-min Rain = 0
KBO1 151246Z 34016KT 14/09 A3008 RMK A01 T01420091  RH  071%=      5-min Rain = 0
KBO1 151247Z 34016KT 14/09 A3008 RMK A01 T01420091  RH  072%=      5-min Rain = 0
KBO1 151248Z 34015KT 14/09 A3008 RMK A01 T01420091  RH  072%=      5-min Rain = 0
KBO1 151249Z 35015KT 14/09 A3008 RMK A01 T01420092  RH  072%=      5-min Rain = 0
KBO1 151250Z 34017KT 14/09 A3008 RMK A01 T01430092  RH  072%=      5-min Rain = 0
KBO1 151251Z 35014KT 14/09 A3008 RMK A01 T01430092  RH  072%=      5-min Rain = 0
KBO1 151252Z 35013KT 14/09 A3008 RMK A01 T01430093  RH  072%=      5-min Rain = 0
KBO1 151253Z 35013KT 14/09 A3009 RMK A01 T01440093  RH  072%=      5-min Rain = 0
KBO1 151254Z 35015KT 15/09 A3009 RMK A01 T01450094  RH  071%=      5-min Rain = 0
KBO1 151255Z 35015KT 15/09 A3009 RMK A01 T01450094  RH  071%=      5-min Rain = 0
KBO1 151256Z 35015KT 15/09 A3009 RMK A01 T01450094  RH  071%=      5-min Rain = 0
KBO1 151257Z 35016KT 15/09 A3009 RMK A01 T01450094  RH  071%=      5-min Rain = 0
KBO1 151258Z 35015KT 15/10 A3009 RMK A01 T01450095  RH  072%=      5-min Rain = 0
KBO1 151259Z 36014KT 15/10 A3009 RMK A01 T01450095  RH  072%=      5-min Rain = 0
KBO1 151300Z 35016KT 15/10 A3009 RMK A01 T01460095  RH  072%=      5-min Rain = 0
KBO1 151301Z 35014KT 15/10 A3009 RMK A01 T01460095  RH  072%=      5-min Rain = 0
KBO1 151302Z 35015KT 15/10 A3009 RMK A01 T01460096  RH  072%=      5-min Rain = 0
KBO1 151303Z 35014KT 15/10 A3009 RMK A01 T01470096  RH  071%=      5-min Rain = 0
KBO1 151304Z 35013KT 15/10 A3009 RMK A01 T01470096  RH  071%=      5-min Rain = 0
KBO1 151305Z 35015KT 15/10 A3009 RMK A01 T01480097  RH  071%=      5-min Rain = 0
KBO1 151306Z 35015KT 15/10 A3009 RMK A01 T01490097  RH  071%=      5-min Rain = 0
KBO1 151307Z 35013KT 15/10 A3009 RMK A01 T01490097  RH  071%=      5-min Rain = 0
KBO1 151308Z 35016KT 15/10 A3009 RMK A01 T01500097  RH  071%=      5-min Rain = 0
KBO1 151309Z 34017KT 15/10 A3009 RMK A01 T01500097  RH  071%=      5-min Rain = 0
KBO1 151310Z 34013KT 15/10 A301 RMK A01 T01490097  RH  071%=      5-min Rain = 0
KBO1 151311Z 34016KT 15/10 A301 RMK A01 T01490098  RH  071%=      5-min Rain = 0
KBO1 151312Z 35012KT 15/10 A301 RMK A01 T01500098  RH  071%=      5-min Rain = 0
KBO1 151313Z 34015KT 15/10 A301 RMK A01 T01500099  RH  071%=      5-min Rain = 0
KBO1 151314Z 35014KT 15/10 A301 RMK A01 T01510099  RH  071%=      5-min Rain = 0
KBO1 151315Z 35016KT 15/10 A301 RMK A01 T01520099  RH  070%=      5-min Rain = 0
KBO1 151316Z 35014KT 15/10 A301 RMK A01 T01520099  RH  070%=      5-min Rain = 0
KBO1 151317Z 35017KT 15/10 A301 RMK A01 T01520099  RH  070%=      5-min Rain = 0
KBO1 151318Z 35012KT 15/10 A301 RMK A01 T01520099  RH  070%=      5-min Rain = 0
KBO1 151319Z 35012KT 15/10 A301 RMK A01 T01540100  RH  070%=      5-min Rain = 0
KBO1 151320Z 35017KT 16/10 A301 RMK A01 T01560100  RH  069%=      5-min Rain = 0
KBO1 151321Z 35015KT 16/10 A301 RMK A01 T01550099  RH  069%=      5-min Rain = 0
KBO1 151322Z 35014KT 15/10 A301 RMK A01 T01540100  RH  070%=      5-min Rain = 0
KBO1 151323Z 35015KT 15/10 A301 RMK A01 T01540100  RH  070%=      5-min Rain = 0
KBO1 151324Z 36016KT 15/10 A301 RMK A01 T01540100  RH  070%=      5-min Rain = 0
KBO1 151325Z 00016KT 15/10 A301 RMK A01 T01520099  RH  071%=      5-min Rain = 0
KBO1 151326Z 36017KT 15/10 A301 RMK A01 T01500099  RH  071%=      5-min Rain = 0
KBO1 151327Z 35016KT 15/10 A301 RMK A01 T01490099  RH  072%=      5-min Rain = 0
KBO1 151328Z 35016KT 15/10 A301 RMK A01 T01480099  RH  072%=      5-min Rain = 0
KBO1 151329Z 00014KT 15/10 A301 RMK A01 T01480100  RH  073%=      5-min Rain = 0
KBO1 151330Z 36015KT 15/10 A301 RMK A01 T01480100  RH  073%=      5-min Rain = 0
KBO1 151331Z 36014KT 15/10 A3011 RMK A01 T01480100  RH  073%=      5-min Rain = 0
KBO1 151332Z 36015KT 15/10 A3011 RMK A01 T01480100  RH  073%=      5-min Rain = 0
KBO1 151333Z 36013KT 15/10 A3011 RMK A01 T01490101  RH  073%=      5-min Rain = 0
KBO1 151334Z 36015KT 15/10 A3011 RMK A01 T01500101  RH  072%=      5-min Rain = 0
KBO1 151335Z 35013KT 15/10 A3011 RMK A01 T01530102  RH  072%=      5-min Rain = 0
KBO1 151336Z 35011KT 16/10 A3011 RMK A01 T01560103  RH  071%=      5-min Rain = 0
KBO1 151337Z 35012KT 16/10 A3011 RMK A01 T01590104  RH  070%=      5-min Rain = 0
KBO1 151338Z 35014KT 16/10 A3011 RMK A01 T01620104  RH  068%=      5-min Rain = 0
KBO1 151339Z 01013KT 16/10 A3011 RMK A01 T01630104  RH  068%=      5-min Rain = 0
KBO1 151340Z 36013KT 16/10 A3011 RMK A01 T01630103  RH  067%=      5-min Rain = 0
KBO1 151341Z 00012KT 17/10 A3011 RMK A01 T01650104  RH  067%=      5-min Rain = 0
KBO1 151342Z 36015KT 17/10 A3011 RMK A01 T01660104  RH  067%=      5-min Rain = 0
KBO1 151343Z 01014KT 17/10 A3011 RMK A01 T01650103  RH  067%=      5-min Rain = 0
KBO1 151344Z 00013KT 16/10 A3011 RMK A01 T01640103  RH  067%=      5-min Rain = 0
KBO1 151345Z 01012KT 16/10 A3011 RMK A01 T01640103  RH  067%=      5-min Rain = 0
KBO1 151346Z 01013KT 17/10 A3011 RMK A01 T01660104  RH  067%=      5-min Rain = 0
KBO1 151347Z 00013KT 17/10 A3011 RMK A01 T01670103  RH  066%=      5-min Rain = 0
KBO1 151348Z 01012KT 17/10 A3011 RMK A01 T01670104  RH  066%=      5-min Rain = 0
KBO1 151349Z 01012KT 17/10 A3011 RMK A01 T01680104  RH  066%=      5-min Rain = 0
KBO1 151350Z 01013KT 17/11 A3011 RMK A01 T01700105  RH  066%=      5-min Rain = 0
KBO1 151351Z 36013KT 17/10 A3011 RMK A01 T01710104  RH  065%=      5-min Rain = 0
KBO1 151352Z 01011KT 17/11 A3011 RMK A01 T01700105  RH  065%=      5-min Rain = 0
KBO1 151353Z 36014KT 17/11 A3011 RMK A01 T01710105  RH  065%=      5-min Rain = 0
KBO1 151354Z 00012KT 17/11 A3012 RMK A01 T01710105  RH  065%=      5-min Rain = 0
KBO1 151355Z 36012KT 17/11 A3012 RMK A01 T01710105  RH  065%=      5-min Rain = 0
KBO1 151356Z 00009KT 17/11 A3012 RMK A01 T01700105  RH  065%=      5-min Rain = 0
KBO1 151357Z 35011G17KT 17/11 A3012 RMK A01 T01700105  RH  066%=      5-min Rain = 0
KBO1 151358Z 00015KT 17/10 A3012 RMK A01 T01680104  RH  066%=      5-min Rain = 0
KBO1 151359Z 01013KT 17/10 A3012 RMK A01 T01650104  RH  067%=      5-min Rain = 0
KBO1 151400Z 01013KT 16/10 A3012 RMK A01 T01630104  RH  068%=      5-min Rain = 0
KBO1 151401Z 01014KT 16/11 A3012 RMK A01 T01610105  RH  069%=      5-min Rain = 0
KBO1 151402Z 01013KT 16/11 A3012 RMK A01 T01610105  RH  070%=      5-min Rain = 0
KBO1 151403Z 35011KT 16/11 A3012 RMK A01 T01600105  RH  070%=      5-min Rain = 0
KBO1 151404Z 35011KT 16/10 A3012 RMK A01 T01600104  RH  069%=      5-min Rain = 0
KBO1 151405Z 36013KT 16/10 A3012 RMK A01 T01590104  RH  070%=      5-min Rain = 0
KBO1 151406Z 36013KT 16/10 A3012 RMK A01 T01600104  RH  070%=      5-min Rain = 0
KBO1 151407Z 01014KT 16/11 A3012 RMK A01 T01610105  RH  069%=      5-min Rain = 0
KBO1 151408Z 00013KT 16/11 A3012 RMK A01 T01630105  RH  068%=      5-min Rain = 0
KBO1 151409Z 00013KT 16/10 A3012 RMK A01 T01640104  RH  068%=      5-min Rain = 0
KBO1 151410Z 36014KT 17/11 A3012 RMK A01 T01660105  RH  067%=      5-min Rain = 0
KBO1 151411Z 00015KT 17/11 A3012 RMK A01 T01680106  RH  067%=      5-min Rain = 0
KBO1 151412Z 36014KT 17/11 A3012 RMK A01 T01710107  RH  066%=      5-min Rain = 0
KBO1 151413Z 00014KT 17/11 A3012 RMK A01 T01730107  RH  065%=      5-min Rain = 0
KBO1 151414Z 01016KT 18/11 A3012 RMK A01 T01750107  RH  064%=      5-min Rain = 0
KBO1 151415Z 01014KT 17/11 A3011 RMK A01 T01740106  RH  064%=      5-min Rain = 0
KBO1 151416Z 00014KT 18/11 A3011 RMK A01 T01750107  RH  065%=      5-min Rain = 0
KBO1 151417Z 01012KT 18/11 A3012 RMK A01 T01770108  RH  064%=      5-min Rain = 0
KBO1 151418Z 00015KT 18/11 A3012 RMK A01 T01790108  RH  063%=      5-min Rain = 0
KBO1 151419Z 00014KT 18/11 A3011 RMK A01 T01790108  RH  063%=      5-min Rain = 0
KBO1 151420Z 01016KT 18/11 A3012 RMK A01 T01790108  RH  063%=      5-min Rain = 0
KBO1 151421Z 01016KT 18/11 A3011 RMK A01 T01790107  RH  063%=      5-min Rain = 0
KBO1 151422Z 02017KT 18/11 A3011 RMK A01 T01790108  RH  063%=      5-min Rain = 0
KBO1 151423Z 02018KT 18/11 A3012 RMK A01 T01780107  RH  063%=      5-min Rain = 0
KBO1 151424Z 02018KT 18/11 A3012 RMK A01 T01770107  RH  064%=      5-min Rain = 0
KBO1 151425Z 02016KT 18/11 A3012 RMK A01 T01770107  RH  064%=      5-min Rain = 0
KBO1 151426Z 01014KT 18/11 A3012 RMK A01 T01780108  RH  064%=      5-min Rain = 0
KBO1 151427Z 01016KT 18/11 A3012 RMK A01 T01800110  RH  063%=      5-min Rain = 0
KBO1 151428Z 02017KT 18/11 A3012 RMK A01 T01800108  RH  063%=      5-min Rain = 0
KBO1 151429Z 01017KT 18/11 A3012 RMK A01 T01790108  RH  063%=      5-min Rain = 0
KBO1 151430Z 02015KT 18/11 A3012 RMK A01 T01800109  RH  063%=      5-min Rain = 0
KBO1 151431Z 03014KT 18/11 A3012 RMK A01 T01830110  RH  062%=      5-min Rain = 0
KBO1 151432Z 02012KT 18/11 A3012 RMK A01 T01840109  RH  062%=      5-min Rain = 0
KBO1 151433Z 02012KT 19/11 A3012 RMK A01 T01860111  RH  061%=      5-min Rain = 0
KBO1 151434Z 02012KT 19/11 A3012 RMK A01 T01870110  RH  061%=      5-min Rain = 0
KBO1 151435Z 01013KT 19/11 A3012 RMK A01 T01850108  RH  061%=      5-min Rain = 0
KBO1 151436Z 02014KT 18/11 A3012 RMK A01 T01820108  RH  062%=      5-min Rain = 0
KBO1 151437Z 01013KT 18/11 A3012 RMK A01 T01810108  RH  063%=      5-min Rain = 0
KBO1 151438Z 01014G19KT 18/11 A3012 RMK A01 T01810110  RH  063%=      5-min Rain = 0
KBO1 151439Z 02015KT 18/11 A3012 RMK A01 T01820109  RH  062%=      5-min Rain = 0
KBO1 151440Z 01016KT 18/11 A3013 RMK A01 T01820109  RH  062%=      5-min Rain = 0
KBO1 151441Z 02013KT 18/11 A3013 RMK A01 T01810109  RH  063%=      5-min Rain = 0
KBO1 151442Z 02012KT 18/11 A3013 RMK A01 T01840111  RH  063%=      5-min Rain = 0
KBO1 151443Z 01012KT 19/11 A3013 RMK A01 T01880112  RH  061%=      5-min Rain = 0
KBO1 151444Z 01011KT 19/11 A3013 RMK A01 T01880111  RH  061%=      5-min Rain = 0
KBO1 151445Z 01012KT 19/11 A3013 RMK A01 T01880112  RH  061%=      5-min Rain = 0
KBO1 151446Z 01015KT 19/11 A3013 RMK A01 T01890111  RH  061%=      5-min Rain = 0
KBO1 151447Z 01013KT 19/11 A3014 RMK A01 T01870111  RH  061%=      5-min Rain = 0
KBO1 151448Z 01012KT 19/11 A3014 RMK A01 T01870113  RH  062%=      5-min Rain = 0
KBO1 151449Z 01015KT 19/11 A3014 RMK A01 T01880114  RH  062%=      5-min Rain = 0
KBO1 151450Z 01016KT 19/11 A3014 RMK A01 T01880112  RH  061%=      5-min Rain = 0
KBO1 151451Z 36015KT 19/11 A3014 RMK A01 T01870112  RH  061%=      5-min Rain = 0
KBO1 151452Z 01013KT 19/11 A3014 RMK A01 T01880114  RH  062%=      5-min Rain = 0
KBO1 151453Z 01015G20KT 19/12 A3014 RMK A01 T01910115  RH  061%=      5-min Rain = 0
KBO1 151454Z 02015KT 19/11 A3014 RMK A01 T01910114  RH  061%=      5-min Rain = 0
KBO1 151455Z 03014KT 19/12 A3014 RMK A01 T01910115  RH  061%=      5-min Rain = 0
KBO1 151456Z 03012KT 19/11 A3013 RMK A01 T01910114  RH  061%=      5-min Rain = 0
KBO1 151457Z 03015KT 19/12 A3014 RMK A01 T01910115  RH  061%=      5-min Rain = 0
KBO1 151458Z 02013KT 19/12 A3014 RMK A01 T01930115  RH  061%=      5-min Rain = 0
KBO1 151459Z 02011KT 19/12 A3014 RMK A01 T01930117  RH  061%=      5-min Rain = 0
KBO1 151500Z 01013G18KT 20/12 A3014 RMK A01 T01970118  RH  060%=      5-min Rain = 0
KBO1 151501Z 00012KT 20/12 A3014 RMK A01 T01980117  RH  060%=      5-min Rain = 0
KBO1 151502Z 01013KT 20/12 A3014 RMK A01 T01960118  RH  060%=      5-min Rain = 0
KBO1 151503Z 01012KT 20/12 A3013 RMK A01 T01950116  RH  060%=      5-min Rain = 0
KBO1 151504Z 02011KT 20/12 A3013 RMK A01 T01960118  RH  061%=      5-min Rain = 0
KBO1 151505Z 02016KT 20/12 A3013 RMK A01 T01990118  RH  060%=      5-min Rain = 0
KBO1 151506Z 02017KT 20/12 A3013 RMK A01 T01970117  RH  060%=      5-min Rain = 0
KBO1 151507Z 02014KT 20/12 A3014 RMK A01 T01950118  RH  061%=      5-min Rain = 0
KBO1 151508Z 02015KT 20/12 A3014 RMK A01 T01950119  RH  061%=      5-min Rain = 0
KBO1 151509Z 02017KT 20/12 A3014 RMK A01 T01950119  RH  061%=      5-min Rain = 0
KBO1 151510Z 02014KT 20/12 A3014 RMK A01 T01960119  RH  061%=      5-min Rain = 0
KBO1 151511Z 02014G20KT 20/12 A3014 RMK A01 T01960119  RH  061%=      5-min Rain = 0
KBO1 151512Z 03015KT 20/12 A3014 RMK A01 T01970118  RH  060%=      5-min Rain = 0
KBO1 151513Z 02016KT 20/12 A3014 RMK A01 T01970119  RH  061%=      5-min Rain = 0
KBO1 151514Z 02014KT 19/12 A3014 RMK A01 T01940117  RH  061%=      5-min Rain = 0
KBO1 151515Z 01014KT 19/12 A3014 RMK A01 T01940118  RH  062%=      5-min Rain = 0
KBO1 151516Z 02014KT 20/12 A3014 RMK A01 T01960120  RH  061%=      5-min Rain = 0
KBO1 151517Z 02013KT 20/12 A3014 RMK A01 T01980118  RH  060%=      5-min Rain = 0
KBO1 151518Z 02018KT 20/12 A3014 RMK A01 T01980119  RH  060%=      5-min Rain = 0
KBO1 151519Z 01016KT 20/12 A3014 RMK A01 T01980119  RH  060%=      5-min Rain = 0
KBO1 151520Z 01016G21KT 20/12 A3014 RMK A01 T01990119  RH  060%=      5-min Rain = 0
KBO1 151521Z 02015KT 20/12 A3014 RMK A01 T01990119  RH  060%=      5-min Rain = 0
KBO1 151522Z 02015KT 20/12 A3014 RMK A01 T01980119  RH  060%=      5-min Rain = 0
KBO1 151523Z 03016KT 20/12 A3014 RMK A01 T02000120  RH  060%=      5-min Rain = 0
KBO1 151524Z 03015KT 20/12 A3014 RMK A01 T02010119  RH  059%=      5-min Rain = 0
KBO1 151525Z 03017KT 20/12 A3014 RMK A01 T02010119  RH  059%=      5-min Rain = 0
KBO1 151526Z 03016KT 20/12 A3014 RMK A01 T02000119  RH  060%=      5-min Rain = 0
KBO1 151527Z 02012G17KT 20/12 A3014 RMK A01 T01990119  RH  060%=      5-min Rain = 0
KBO1 151528Z 00015KT 20/12 A3014 RMK A01 T02010120  RH  059%=      5-min Rain = 0
KBO1 151529Z 02014G20KT 20/12 A3014 RMK A01 T02020119  RH  059%=      5-min Rain = 0
KBO1 151530Z 02015KT 20/12 A3014 RMK A01 T02030118  RH  058%=      5-min Rain = 0
KBO1 151531Z 03015KT 20/12 A3014 RMK A01 T02020118  RH  058%=      5-min Rain = 0
KBO1 151532Z 03016KT 20/12 A3014 RMK A01 T02020118  RH  058%=      5-min Rain = 0
KBO1 151533Z 02016KT 20/12 A3014 RMK A01 T02020118  RH  058%=      5-min Rain = 0
KBO1 151534Z 02017KT 20/12 A3014 RMK A01 T02030118  RH  058%=      5-min Rain = 0
KBO1 151535Z 03016KT 20/12 A3014 RMK A01 T02020117  RH  058%=      5-min Rain = 0
KBO1 151536Z 03013G21KT 20/12 A3014 RMK A01 T02010120  RH  060%=      5-min Rain = 0
KBO1 151537Z 03016KT 20/12 A3014 RMK A01 T02030120  RH  059%=      5-min Rain = 0
KBO1 151538Z 01012KT 20/12 A3014 RMK A01 T02030120  RH  059%=      5-min Rain = 0
KBO1 151539Z 02014KT 21/12 A3014 RMK A01 T02050119  RH  058%=      5-min Rain = 0
KBO1 151540Z 02015KT 21/12 A3015 RMK A01 T02060121  RH  058%=      5-min Rain = 0
KBO1 151541Z 01015KT 21/12 A3014 RMK A01 T02060117  RH  056%=      5-min Rain = 0
KBO1 151542Z 01012KT 20/12 A3014 RMK A01 T02040116  RH  057%=      5-min Rain = 0
KBO1 151543Z 01012KT 20/12 A3014 RMK A01 T02030116  RH  057%=      5-min Rain = 0
KBO1 151544Z 02012KT 20/12 A3014 RMK A01 T02030116  RH  057%=      5-min Rain = 0
KBO1 151545Z 03011KT 21/12 A3014 RMK A01 T02050116  RH  057%=      5-min Rain = 0
KBO1 151546Z 05013KT 21/12 A3014 RMK A01 T02050117  RH  057%=      5-min Rain = 0
KBO1 151547Z 05013KT 21/12 A3014 RMK A01 T02070117  RH  057%=      5-min Rain = 0
KBO1 151548Z 04013KT 21/12 A3014 RMK A01 T02090117  RH  056%=      5-min Rain = 0
KBO1 151549Z 05017KT 21/12 A3014 RMK A01 T02090115  RH  055%=      5-min Rain = 0
KBO1 151550Z 04015KT 21/11 A3014 RMK A01 T02060114  RH  055%=      5-min Rain = 0
KBO1 151551Z 04017KT 21/12 A3014 RMK A01 T02050115  RH  056%=      5-min Rain = 0
KBO1 151552Z 04016KT 21/12 A3015 RMK A01 T02070116  RH  056%=      5-min Rain = 0
KBO1 151553Z 05013KT 21/12 A3015 RMK A01 T02070116  RH  056%=      5-min Rain = 0
KBO1 151554Z 04014G21KT 21/12 A3014 RMK A01 T02080117  RH  056%=      5-min Rain = 0
KBO1 151555Z 04019KT 21/12 A3015 RMK A01 T02100117  RH  055%=      5-min Rain = 0
KBO1 151556Z 04017KT 21/12 A3015 RMK A01 T02090117  RH  055%=      5-min Rain = 0
KBO1 151557Z 04017KT 21/12 A3015 RMK A01 T02080117  RH  056%=      5-min Rain = 0
KBO1 151558Z 04014KT 21/12 A3014 RMK A01 T02060116  RH  056%=      5-min Rain = 0
KBO1 151559Z 04013KT 21/12 A3014 RMK A01 T02060118  RH  057%=      5-min Rain = 0
KBO1 151600Z 04015KT 21/12 A3014 RMK A01 T02090116  RH  055%=      5-min Rain = 0
KBO1 151601Z 04017KT 21/12 A3015 RMK A01 T02090115  RH  055%=      5-min Rain = 0
KBO1 151602Z 03013KT 21/11 A3015 RMK A01 T02090114  RH  055%=      5-min Rain = 0
KBO1 151603Z 02012KT 21/12 A3014 RMK A01 T02070115  RH  055%=      5-min Rain = 0
KBO1 151604Z 03016KT 21/12 A3015 RMK A01 T02110117  RH  055%=      5-min Rain = 0
KBO1 151605Z 04016KT 21/12 A3015 RMK A01 T02120116  RH  054%=      5-min Rain = 0
KBO1 151606Z 04016KT 21/12 A3015 RMK A01 T02120116  RH  054%=      5-min Rain = 0
KBO1 151607Z 04015KT 21/12 A3015 RMK A01 T02120115  RH  054%=      5-min Rain = 0
KBO1 151608Z 04012KT 21/12 A3015 RMK A01 T02110115  RH  054%=      5-min Rain = 0
KBO1 151609Z 03009KT 21/12 A3015 RMK A01 T02090116  RH  055%=      5-min Rain = 0
KBO1 151610Z 04018KT 21/12 A3015 RMK A01 T02120116  RH  054%=      5-min Rain = 0
KBO1 151611Z 04018KT 21/12 A3015 RMK A01 T02130115  RH  054%=      5-min Rain = 0
KBO1 151612Z 04017KT 21/12 A3015 RMK A01 T02120116  RH  054%=      5-min Rain = 0
KBO1 151613Z 03014G19KT 21/11 A3015 RMK A01 T02120114  RH  054%=      5-min Rain = 0
KBO1 151614Z 04014KT 21/12 A3015 RMK A01 T02110115  RH  054%=      5-min Rain = 0
KBO1 151615Z 04016G21KT 21/12 A3015 RMK A01 T02100115  RH  054%=      5-min Rain = 0
KBO1 151616Z 04014KT 21/12 A3015 RMK A01 T02110115  RH  054%=      5-min Rain = 0
KBO1 151617Z 04013KT 21/12 A3015 RMK A01 T02120116  RH  054%=      5-min Rain = 0
KBO1 151618Z 04014KT 21/12 A3014 RMK A01 T02140117  RH  054%=      5-min Rain = 0
KBO1 151619Z 03015KT 22/12 A3015 RMK A01 T02170118  RH  053%=      5-min Rain = 0
KBO1 151620Z 04011KT 22/12 A3014 RMK A01 T02170118  RH  053%=      5-min Rain = 0
KBO1 151621Z 03014KT 22/12 A3014 RMK A01 T02190118  RH  053%=      5-min Rain = 0
KBO1 151622Z 04017KT 22/12 A3015 RMK A01 T02190117  RH  053%=      5-min Rain = 0
KBO1 151623Z 04014KT 22/12 A3015 RMK A01 T02180117  RH  052%=      5-min Rain = 0
KBO1 151624Z 03013KT 22/12 A3015 RMK A01 T02170117  RH  053%=      5-min Rain = 0
KBO1 151625Z 02014KT 22/12 A3015 RMK A01 T02170118  RH  053%=      5-min Rain = 0
KBO1 151626Z 03013G18KT 22/12 A3015 RMK A01 T02190118  RH  052%=      5-min Rain = 0
KBO1 151627Z 03016KT 22/12 A3015 RMK A01 T02200117  RH  052%=      5-min Rain = 0
KBO1 151628Z 04013KT 22/12 A3015 RMK A01 T02190116  RH  052%=      5-min Rain = 0
KBO1 151629Z 03011KT 22/12 A3014 RMK A01 T02170118  RH  053%=      5-min Rain = 0
KBO1 151630Z 01014G19KT 22/12 A3014 RMK A01 T02190118  RH  052%=      5-min Rain = 0
KBO1 151631Z 02015KT 22/12 A3014 RMK A01 T02190116  RH  052%=      5-min Rain = 0
KBO1 151632Z 04014KT 22/12 A3015 RMK A01 T02170116  RH  053%=      5-min Rain = 0
KBO1 151633Z 03012KT 22/12 A3015 RMK A01 T02170116  RH  053%=      5-min Rain = 0
KBO1 151634Z 04010KT 22/12 A3014 RMK A01 T02150115  RH  053%=      5-min Rain = 0
KBO1 151635Z 04010G15KT 22/12 A3014 RMK A01 T02160119  RH  054%=      5-min Rain = 0
KBO1 151636Z 03015KT 22/12 A3014 RMK A01 T02230121  RH  052%=      5-min Rain = 0
KBO1 151637Z 04013KT 23/12 A3015 RMK A01 T02260120  RH  051%=      5-min Rain = 0
KBO1 151638Z 05013KT 23/12 A3014 RMK A01 T02250118  RH  051%=      5-min Rain = 0
KBO1 151639Z 03013KT 22/12 A3014 RMK A01 T02220118  RH  052%=      5-min Rain = 0
KBO1 151640Z 03014KT 22/12 A3015 RMK A01 T02220118  RH  052%=      5-min Rain = 0
KBO1 151641Z 04013KT 22/12 A3015 RMK A01 T02220119  RH  052%=      5-min Rain = 0
KBO1 151642Z 03009KT 22/12 A3014 RMK A01 T02210119  RH  052%=      5-min Rain = 0
KBO1 151643Z 04013KT 22/12 A3014 RMK A01 T02230120  RH  052%=      5-min Rain = 0
KBO1 151644Z 05015KT 22/12 A3014 RMK A01 T02240120  RH  052%=      5-min Rain = 0
KBO1 151645Z 04014KT 23/12 A3014 RMK A01 T02250120  RH  051%=      5-min Rain = 0
KBO1 151646Z 04015KT 23/12 A3014 RMK A01 T02300122  RH  051%=      5-min Rain = 0
KBO1 151647Z 04015KT 23/12 A3015 RMK A01 T02280119  RH  050%=      5-min Rain = 0
KBO1 151648Z 05013KT 22/12 A3014 RMK A01 T02240120  RH  052%=      5-min Rain = 0
KBO1 151649Z 05011G17KT 22/12 A3014 RMK A01 T02230121  RH  052%=      5-min Rain = 0
KBO1 151650Z 05017KT 23/12 A3014 RMK A01 T02250121  RH  052%=      5-min Rain = 0
KBO1 151651Z 04012KT 22/12 A3014 RMK A01 T02240119  RH  051%=      5-min Rain = 0
KBO1 151652Z 03014KT 22/12 A3014 RMK A01 T02210119  RH  052%=      5-min Rain = 0
KBO1 151653Z 03014KT 22/12 A3014 RMK A01 T02200119  RH  053%=      5-min Rain = 0
KBO1 151654Z 03014KT 22/12 A3014 RMK A01 T02200121  RH  053%=      5-min Rain = 0
KBO1 151655Z 03014KT 22/12 A3014 RMK A01 T02220122  RH  053%=      5-min Rain = 0
KBO1 151656Z 03014KT 23/12 A3014 RMK A01 T02260124  RH  053%=      5-min Rain = 0
KBO1 151657Z 02017KT 23/12 A3014 RMK A01 T02290123  RH  051%=      5-min Rain = 0
KBO1 151658Z 03015KT 23/12 A3015 RMK A01 T02290121  RH  050%=      5-min Rain = 0
KBO1 151659Z 04012KT 23/12 A3015 RMK A01 T02260120  RH  051%=      5-min Rain = 0
KBO1 151700Z 04013KT 22/12 A3015 RMK A01 T02240121  RH  052%=      5-min Rain = 0
KBO1 151701Z 05014KT 23/12 A3015 RMK A01 T02250122  RH  052%=      5-min Rain = 0
KBO1 151702Z 05017KT 23/12 A3015 RMK A01 T02250121  RH  052%=      5-min Rain = 0
KBO1 151703Z 05014KT 23/12 A3015 RMK A01 T02250122  RH  052%=      5-min Rain = 0
KBO1 151704Z 03012KT 23/12 A3015 RMK A01 T02280124  RH  052%=      5-min Rain = 0
KBO1 151705Z 01015KT 23/12 A3015 RMK A01 T02320123  RH  050%=      5-min Rain = 0
KBO1 151706Z 03015KT 23/12 A3015 RMK A01 T02270121  RH  051%=      5-min Rain = 0
KBO1 151707Z 04014KT 22/12 A3015 RMK A01 T02240119  RH  052%=      5-min Rain = 0
KBO1 151708Z 04010KT 22/12 A3015 RMK A01 T02200119  RH  053%=      5-min Rain = 0
KBO1 151709Z 05012KT 22/12 A3015 RMK A01 T02210122  RH  053%=      5-min Rain = 0
KBO1 151710Z 05015G20KT 23/12 A3015 RMK A01 T02250124  RH  053%=      5-min Rain = 0
KBO1 151711Z 02016KT 23/12 A3015 RMK A01 T02270121  RH  051%=      5-min Rain = 0
KBO1 151712Z 02015KT 23/12 A3015 RMK A01 T02260120  RH  051%=      5-min Rain = 0
KBO1 151713Z 03014KT 23/12 A3015 RMK A01 T02270120  RH  051%=      5-min Rain = 0
KBO1 151714Z 03009KT 23/12 A3015 RMK A01 T02270122  RH  051%=      5-min Rain = 0
KBO1 151715Z 04012KT 23/12 A3015 RMK A01 T02260122  RH  051%=      5-min Rain = 0
KBO1 151716Z 06011KT 23/12 A3015 RMK A01 T02270123  RH  052%=      5-min Rain = 0
KBO1 151717Z 05014KT 23/12 A3015 RMK A01 T02280123  RH  052%=      5-min Rain = 0
KBO1 151718Z 02015KT 23/12 A3015 RMK A01 T02280122  RH  051%=      5-min Rain = 0
KBO1 151719Z 02012KT 23/12 A3015 RMK A01 T02260122  RH  052%=      5-min Rain = 0
KBO1 151720Z 03013KT 23/12 A3015 RMK A01 T02250123  RH  052%=      5-min Rain = 0
KBO1 151721Z 05013KT 23/13 A3015 RMK A01 T02290125  RH  052%=      5-min Rain = 0
KBO1 151722Z 05011KT 23/12 A3015 RMK A01 T02330122  RH  050%=      5-min Rain = 0
KBO1 151723Z 04010KT 23/12 A3015 RMK A01 T02310122  RH  050%=      5-min Rain = 0
KBO1 151724Z 04012KT 23/12 A3015 RMK A01 T02330123  RH  050%=      5-min Rain = 0
KBO1 151725Z 04014KT 23/12 A3016 RMK A01 T02330123  RH  050%=      5-min Rain = 0
KBO1 151726Z 05011KT 23/12 A3016 RMK A01 T02330123  RH  050%=      5-min Rain = 0
KBO1 151727Z 05010KT 23/12 A3016 RMK A01 T02330123  RH  050%=      5-min Rain = 0
KBO1 151728Z 06007KT 23/12 A3016 RMK A01 T02310120  RH  049%=      5-min Rain = 0
KBO1 151729Z 06009G15KT 23/12 A3016 RMK A01 T02290120  RH  050%=      5-min Rain = 0
KBO1 151730Z 05012KT 23/12 A3016 RMK A01 T02300122  RH  051%=      5-min Rain = 0
KBO1 151731Z 06012KT 23/12 A3016 RMK A01 T02330121  RH  050%=      5-min Rain = 0
KBO1 151732Z 05011KT 23/12 A3016 RMK A01 T02340121  RH  049%=      5-min Rain = 0
KBO1 151733Z 05014KT 23/12 A3016 RMK A01 T02320122  RH  050%=      5-min Rain = 0
KBO1 151734Z 05010KT 23/13 A3016 RMK A01 T02330125  RH  051%=      5-min Rain = 0
KBO1 151735Z 06009KT 24/13 A3015 RMK A01 T02360125  RH  050%=      5-min Rain = 0
KBO1 151736Z 05009KT 24/13 A3016 RMK A01 T02380125  RH  049%=      5-min Rain = 0
KBO1 151737Z 03014KT 23/12 A3016 RMK A01 T02340121  RH  049%=      5-min Rain = 0
KBO1 151738Z 03011KT 23/12 A3016 RMK A01 T02320120  RH  049%=      5-min Rain = 0
KBO1 151739Z 03012KT 23/12 A3015 RMK A01 T02310120  RH  050%=      5-min Rain = 0
KBO1 151740Z 02012KT 23/12 A3015 RMK A01 T02320121  RH  050%=      5-min Rain = 0
KBO1 151741Z 01008KT 23/12 A3015 RMK A01 T02340120  RH  049%=      5-min Rain = 0
KBO1 151742Z 01005KT 23/12 A3015 RMK A01 T02320118  RH  049%=      5-min Rain = 0
KBO1 151743Z 04006KT 23/12 A3015 RMK A01 T02310123  RH  051%=      5-min Rain = 0
KBO1 151744Z 05015KT 24/12 A3015 RMK A01 T02370124  RH  049%=      5-min Rain = 0
KBO1 151745Z 06010KT 24/12 A3015 RMK A01 T02380122  RH  048%=      5-min Rain = 0
KBO1 151746Z 04007KT 24/12 A3015 RMK A01 T02360122  RH  049%=      5-min Rain = 0
KBO1 151747Z 02008KT 24/12 A3015 RMK A01 T02350122  RH  049%=      5-min Rain = 0
KBO1 151748Z 03014KT 24/12 A3015 RMK A01 T02350123  RH  049%=      5-min Rain = 0
KBO1 151749Z 06014KT 24/12 A3015 RMK A01 T02400124  RH  048%=      5-min Rain = 0
KBO1 151750Z 04014KT 24/12 A3015 RMK A01 T02420123  RH  047%=      5-min Rain = 0
KBO1 151751Z 04011KT 24/12 A3015 RMK A01 T02410122  RH  047%=      5-min Rain = 0
KBO1 151752Z 04010KT 24/12 A3015 RMK A01 T02390121  RH  048%=      5-min Rain = 0
KBO1 151753Z 04009KT 24/12 A3015 RMK A01 T02360119  RH  048%=      5-min Rain = 0
KBO1 151754Z 04005KT 24/12 A3015 RMK A01 T02350119  RH  048%=      5-min Rain = 0
KBO1 151755Z 03009KT 24/12 A3015 RMK A01 T02350120  RH  049%=      5-min Rain = 0
KBO1 151756Z 04008KT 24/12 A3015 RMK A01 T02350121  RH  049%=      5-min Rain = 0
KBO1 151757Z 05012G18KT 24/12 A3015 RMK A01 T02370123  RH  049%=      5-min Rain = 0
KBO1 151758Z 04010KT 24/12 A3015 RMK A01 T02410123  RH  047%=      5-min Rain = 0
KBO1 151759Z 04011KT 24/12 A3015 RMK A01 T02430122  RH  047%=      5-min Rain = 0
KBO1 151800Z 01013KT 24/12 A3015 RMK A01 T02430124  RH  047%=      5-min Rain = 0
KBO1 151801Z 01013KT 24/12 A3014 RMK A01 T02440123  RH  047%=      5-min Rain = 0
KBO1 151802Z 00013KT 24/12 A3014 RMK A01 T02430123  RH  047%=      5-min Rain = 0
KBO1 151803Z 01011KT 24/12 A3014 RMK A01 T02410122  RH  047%=      5-min Rain = 0
KBO1 151804Z 03009KT 24/12 A3014 RMK A01 T02410123  RH  048%=      5-min Rain = 0
KBO1 151805Z 04014KT 24/12 A3015 RMK A01 T02430122  RH  047%=      5-min Rain = 0
KBO1 151806Z 03012KT 24/12 A3015 RMK A01 T02440121  RH  046%=      5-min Rain = 0
KBO1 151807Z 02010G15KT 24/12 A3014 RMK A01 T02420119  RH  046%=      5-min Rain = 0
KBO1 151808Z 04011KT 24/12 A3014 RMK A01 T02410119  RH  046%=      5-min Rain = 0
KBO1 151809Z 03007KT 24/12 A3014 RMK A01 T02400118  RH  046%=      5-min Rain = 0
KBO1 151810Z 05011KT 24/12 A3014 RMK A01 T02400120  RH  047%=      5-min Rain = 0
KBO1 151811Z 05009KT 24/12 A3014 RMK A01 T02420118  RH  046%=      5-min Rain = 0
KBO1 151812Z 05011KT 24/12 A3014 RMK A01 T02420121  RH  047%=      5-min Rain = 0
KBO1 151813Z 04010G15KT 24/12 A3014 RMK A01 T02420121  RH  047%=      5-min Rain = 0
KBO1 151814Z 03014KT 24/12 A3014 RMK A01 T02420122  RH  047%=      5-min Rain = 0
KBO1 151815Z 03012KT 24/12 A3014 RMK A01 T02440122  RH  046%=      5-min Rain = 0
KBO1 151816Z 01012KT 24/12 A3014 RMK A01 T02440122  RH  047%=      5-min Rain = 0
KBO1 151817Z 02012KT 24/12 A3014 RMK A01 T02440122  RH  046%=      5-min Rain = 0
KBO1 151818Z 04009KT 25/12 A3014 RMK A01 T02450123  RH  046%=      5-min Rain = 0
KBO1 151819Z 05010KT 25/12 A3014 RMK A01 T02480123  RH  046%=      5-min Rain = 0
KBO1 151820Z 04009KT 25/12 A3014 RMK A01 T02480121  RH  045%=      5-min Rain = 0
KBO1 151821Z 05008KT 25/12 A3014 RMK A01 T02480121  RH  045%=      5-min Rain = 0
KBO1 151822Z 04006KT 25/12 A3014 RMK A01 T02450120  RH  046%=      5-min Rain = 0
KBO1 151823Z 02007KT 25/12 A3014 RMK A01 T02450122  RH  046%=      5-min Rain = 0
KBO1 151824Z 05010G15KT 25/12 A3014 RMK A01 T02460120  RH  045%=      5-min Rain = 0
KBO1 151825Z 04014KT 25/12 A3014 RMK A01 T02470121  RH  045%=      5-min Rain = 0
KBO1 151826Z 04011KT 25/12 A3014 RMK A01 T02480121  RH  045%=      5-min Rain = 0
KBO1 151827Z 03013KT 25/12 A3014 RMK A01 T02490120  RH  044%=      5-min Rain = 0
KBO1 151828Z 04013KT 25/12 A3014 RMK A01 T02470120  RH  045%=      5-min Rain = 0
KBO1 151829Z 04012KT 25/12 A3014 RMK A01 T02470119  RH  045%=      5-min Rain = 0
KBO1 151830Z 03010KT 25/12 A3014 RMK A01 T02480119  RH  044%=      5-min Rain = 0
KBO1 151831Z 02009KT 25/12 A3014 RMK A01 T02490117  RH  044%=      5-min Rain = 0
KBO1 151832Z 05010KT 25/12 A3014 RMK A01 T02470117  RH  044%=      5-min Rain = 0
KBO1 151833Z 07012KT 25/12 A3014 RMK A01 T02470118  RH  045%=      5-min Rain = 0
KBO1 151834Z 05009KT 25/12 A3013 RMK A01 T02480119  RH  044%=      5-min Rain = 0
KBO1 151835Z 03010KT 25/12 A3013 RMK A01 T02500119  RH  044%=      5-min Rain = 0
KBO1 151836Z 04009G14KT 25/12 A3013 RMK A01 T02500119  RH  044%=      5-min Rain = 0
KBO1 151837Z 04011KT 25/12 A3013 RMK A01 T02530123  RH  044%=      5-min Rain = 0
KBO1 151838Z 05014G23KT 25/12 A3013 RMK A01 T02490121  RH  045%=      5-min Rain = 0
KBO1 151839Z 05016KT 25/12 A3013 RMK A01 T02470122  RH  045%=      5-min Rain = 0
KBO1 151840Z 05014KT 25/12 A3013 RMK A01 T02470121  RH  045%=      5-min Rain = 0
KBO1 151841Z 05010KT 25/12 A3013 RMK A01 T02460120  RH  045%=      5-min Rain = 0
KBO1 151842Z 04011KT 24/12 A3013 RMK A01 T02430121  RH  046%=      5-min Rain = 0
KBO1 151843Z 02011KT 25/12 A3013 RMK A01 T02480121  RH  045%=      5-min Rain = 0
KBO1 151844Z 03010KT 25/12 A3013 RMK A01 T02470119  RH  045%=      5-min Rain = 0
KBO1 151845Z 07012KT 25/12 A3013 RMK A01 T02470121  RH  045%=      5-min Rain = 0
KBO1 151846Z 08013KT 25/12 A3013 RMK A01 T02490118  RH  044%=      5-min Rain = 0
KBO1 151847Z 07012KT 25/12 A3013 RMK A01 T02490118  RH  044%=      5-min Rain = 0
KBO1 151848Z 08010KT 25/12 A3013 RMK A01 T02490118  RH  044%=      5-min Rain = 0
KBO1 151849Z 08011KT 25/12 A3013 RMK A01 T02470117  RH  044%=      5-min Rain = 0
KBO1 151850Z 08009KT 25/12 A3013 RMK A01 T02470120  RH  045%=      5-min Rain = 0
KBO1 151851Z 07014G19KT 25/12 A3013 RMK A01 T02540121  RH  043%=      5-min Rain = 0
KBO1 151852Z 08010KT 25/12 A3013 RMK A01 T02540119  RH  043%=      5-min Rain = 0
KBO1 151853Z 07011KT 25/12 A3013 RMK A01 T02540120  RH  043%=      5-min Rain = 0
KBO1 151854Z 08009KT 26/12 A3013 RMK A01 T02560117  RH  042%=      5-min Rain = 0
KBO1 151855Z 06007KT 26/12 A3013 RMK A01 T02550117  RH  042%=      5-min Rain = 0
KBO1 151856Z 05011KT 25/12 A3013 RMK A01 T02540116  RH  042%=      5-min Rain = 0
KBO1 151857Z 05010KT 25/12 A3013 RMK A01 T02530117  RH  043%=      5-min Rain = 0
KBO1 151858Z 09006KT 25/12 A3013 RMK A01 T02520119  RH  043%=      5-min Rain = 0
KBO1 151859Z 06010KT 25/12 A3013 RMK A01 T02520120  RH  044%=      5-min Rain = 0
KBO1 151900Z 04013KT 25/12 A3013 RMK A01 T02530120  RH  043%=      5-min Rain = 0
KBO1 151901Z 05010KT 25/12 A3013 RMK A01 T02520121  RH  044%=      5-min Rain = 0
KBO1 151902Z 05011KT 25/12 A3013 RMK A01 T02510121  RH  044%=      5-min Rain = 0
KBO1 151903Z 06006KT 25/12 A3013 RMK A01 T02490120  RH  045%=      5-min Rain = 0
KBO1 151904Z 05005KT 25/12 A3013 RMK A01 T02500122  RH  045%=      5-min Rain = 0
KBO1 151905Z 04008KT 25/12 A3013 RMK A01 T02530124  RH  045%=      5-min Rain = 0
KBO1 151906Z 05008KT 26/12 A3013 RMK A01 T02550122  RH  043%=      5-min Rain = 0
KBO1 151907Z 04007KT 25/12 A3013 RMK A01 T02540123  RH  044%=      5-min Rain = 0
KBO1 151908Z 04013KT 26/13 A3013 RMK A01 T02580125  RH  044%=      5-min Rain = 0
KBO1 151909Z 04013KT 26/12 A3013 RMK A01 T02590123  RH  043%=      5-min Rain = 0
KBO1 151910Z 02013KT 26/12 A3013 RMK A01 T02570122  RH  043%=      5-min Rain = 0
KBO1 151911Z 03010KT 26/12 A3013 RMK A01 T02560121  RH  043%=      5-min Rain = 0
KBO1 151912Z 03008KT 26/12 A3013 RMK A01 T02550121  RH  043%=      5-min Rain = 0
KBO1 151913Z 05008KT 25/12 A3013 RMK A01 T02540122  RH  044%=      5-min Rain = 0
KBO1 151914Z 06012KT 26/12 A3013 RMK A01 T02560121  RH  043%=      5-min Rain = 0
KBO1 151915Z 04013KT 26/12 A3013 RMK A01 T02560122  RH  044%=      5-min Rain = 0
KBO1 151916Z 03013KT 26/12 A3013 RMK A01 T02550121  RH  043%=      5-min Rain = 0
KBO1 151917Z 03013KT 25/12 A3012 RMK A01 T02540121  RH  044%=      5-min Rain = 0
KBO1 151918Z 05011KT 26/12 A3013 RMK A01 T02550121  RH  043%=      5-min Rain = 0
KBO1 151919Z 05007KT 26/12 A3013 RMK A01 T02560119  RH  042%=      5-min Rain = 0
KBO1 151920Z 05007KT 25/12 A3012 RMK A01 T02540121  RH  043%=      5-min Rain = 0
KBO1 151921Z 07010KT 26/12 A3012 RMK A01 T02560121  RH  043%=      5-min Rain = 0
KBO1 151922Z 07007KT 26/12 A3012 RMK A01 T02580120  RH  042%=      5-min Rain = 0
KBO1 151923Z 06009KT 26/12 A3012 RMK A01 T02590120  RH  042%=      5-min Rain = 0
KBO1 151924Z 07005KT 26/12 A3012 RMK A01 T02590117  RH  041%=      5-min Rain = 0
KBO1 151925Z 04006KT 26/12 A3012 RMK A01 T02560118  RH  042%=      5-min Rain = 0
KBO1 151926Z 03010KT 26/12 A3012 RMK A01 T02560117  RH  042%=      5-min Rain = 0
KBO1 151927Z 08008KT 26/12 A3012 RMK A01 T02550121  RH  043%=      5-min Rain = 0
KBO1 151928Z 08008G13KT 26/12 A3012 RMK A01 T02590120  RH  042%=      5-min Rain = 0
KBO1 151929Z 06007KT 26/12 A3012 RMK A01 T02570120  RH  042%=      5-min Rain = 0
KBO1 151930Z 07011KT 26/12 A3012 RMK A01 T02570121  RH  043%=      5-min Rain = 0
KBO1 151931Z 07007KT 26/12 A3012 RMK A01 T02570118  RH  042%=      5-min Rain = 0
KBO1 151932Z 08004KT 25/12 A3012 RMK A01 T02530118  RH  043%=      5-min Rain = 0
KBO1 151933Z 06007KT 25/12 A3012 RMK A01 T02530121  RH  044%=      5-min Rain = 0
KBO1 151934Z 08010KT 26/12 A3012 RMK A01 T02590121  RH  042%=      5-min Rain = 0
KBO1 151935Z 10009KT 26/11 A3012 RMK A01 T02620114  RH  040%=      5-min Rain = 0
KBO1 151936Z 03004KT 26/12 A3012 RMK A01 T02610118  RH  041%=      5-min Rain = 0
KBO1 151937Z 06005KT 26/12 A3012 RMK A01 T02600119  RH  041%=      5-min Rain = 0
KBO1 151938Z 06009KT 26/12 A3012 RMK A01 T02600123  RH  042%=      5-min Rain = 0
KBO1 151939Z 07008KT 26/12 A3012 RMK A01 T02630120  RH  041%=      5-min Rain = 0
KBO1 151940Z 04006KT 26/12 A3011 RMK A01 T02630121  RH  041%=      5-min Rain = 0
KBO1 151941Z 07006KT 26/12 A3011 RMK A01 T02630122  RH  042%=      5-min Rain = 0
KBO1 151942Z 08008G13KT 27/13 A3011 RMK A01 T02670125  RH  041%=      5-min Rain = 0
KBO1 151943Z 07008KT 27/13 A3012 RMK A01 T02700125  RH  041%=      5-min Rain = 0
KBO1 151944Z 08008KT 27/12 A3011 RMK A01 T02700123  RH  040%=      5-min Rain = 0
KBO1 151945Z 07012KT 27/13 A3011 RMK A01 T02690125  RH  041%=      5-min Rain = 0
KBO1 151946Z 05012KT 27/12 A3011 RMK A01 T02680121  RH  040%=      5-min Rain = 0
KBO1 151947Z 07008KT 26/12 A3011 RMK A01 T02600118  RH  041%=      5-min Rain = 0
KBO1 151948Z 07010KT 26/12 A3011 RMK A01 T02570119  RH  042%=      5-min Rain = 0
KBO1 151949Z 08013KT 26/12 A3011 RMK A01 T02600119  RH  041%=      5-min Rain = 0
KBO1 151950Z 08011KT 26/12 A3011 RMK A01 T02630119  RH  041%=      5-min Rain = 0
KBO1 151951Z 10010KT 26/12 A3011 RMK A01 T02640117  RH  040%=      5-min Rain = 0
KBO1 151952Z 10008KT 27/12 A3011 RMK A01 T02660115  RH  039%=      5-min Rain = 0
KBO1 151953Z 09007KT 27/12 A3011 RMK A01 T02660116  RH  039%=      5-min Rain = 0
KBO1 151954Z 07005KT 27/12 A3011 RMK A01 T02670120  RH  040%=      5-min Rain = 0
KBO1 151955Z 06010KT 27/12 A3011 RMK A01 T02700121  RH  039%=      5-min Rain = 0
KBO1 151956Z 07010KT 27/12 A3011 RMK A01 T02680119  RH  040%=      5-min Rain = 0
KBO1 151957Z 07010KT 27/12 A3011 RMK A01 T02670120  RH  040%=      5-min Rain = 0
KBO1 151958Z 07008KT 27/12 A3011 RMK A01 T02710117  RH  039%=      5-min Rain = 0
KBO1 151959Z 09010KT 27/12 A3011 RMK A01 T02700116  RH  038%=      5-min Rain = 0
KBO1 152000Z 09012KT 27/12 A3011 RMK A01 T02700116  RH  038%=      5-min Rain = 0
KBO1 152001Z 10010KT 27/12 A3011 RMK A01 T02700115  RH  038%=      5-min Rain = 0
KBO1 152002Z 10008KT 27/11 A3011 RMK A01 T02680112  RH  038%=      5-min Rain = 0
KBO1 152003Z 11007KT 27/11 A301 RMK A01 T02660113  RH  038%=      5-min Rain = 0
KBO1 152004Z 10007KT 27/11 A301 RMK A01 T02660112  RH  038%=      5-min Rain = 0
KBO1 152005Z 12009KT 27/11 A301 RMK A01 T02680109  RH  037%=      5-min Rain = 0
KBO1 152006Z 13006KT 27/11 A301 RMK A01 T02680108  RH  037%=      5-min Rain = 0
KBO1 152007Z 12010KT 27/11 A301 RMK A01 T02670112  RH  038%=      5-min Rain = 0
KBO1 152008Z 11011KT 27/11 A301 RMK A01 T02700114  RH  038%=      5-min Rain = 0
KBO1 152009Z 09011KT 27/11 A301 RMK A01 T02720112  RH  037%=      5-min Rain = 0
KBO1 152010Z 10008KT 27/11 A301 RMK A01 T02730111  RH  036%=      5-min Rain = 0
KBO1 152011Z 12008KT 27/11 A301 RMK A01 T02700112  RH  037%=      5-min Rain = 0
KBO1 152012Z 10008KT 27/11 A301 RMK A01 T02680114  RH  038%=      5-min Rain = 0
KBO1 152013Z 11008KT 27/12 A301 RMK A01 T02650115  RH  039%=      5-min Rain = 0
KBO1 152014Z 08007KT 27/12 A301 RMK A01 T02660115  RH  039%=      5-min Rain = 0
KBO1 152015Z 07010KT 27/12 A301 RMK A01 T02670119  RH  040%=      5-min Rain = 0
KBO1 152016Z 09007KT 27/12 A301 RMK A01 T02670116  RH  039%=      5-min Rain = 0
KBO1 152017Z 10010G15KT 27/12 A301 RMK A01 T02650116  RH  040%=      5-min Rain = 0
KBO1 152018Z 09012KT 27/12 A301 RMK A01 T02660115  RH  039%=      5-min Rain = 0
KBO1 152019Z 09013KT 27/12 A301 RMK A01 T02700116  RH  038%=      5-min Rain = 0
KBO1 152020Z 08013KT 27/12 A301 RMK A01 T02720115  RH  038%=      5-min Rain = 0
KBO1 152021Z 10009KT 27/12 A301 RMK A01 T02710115  RH  038%=      5-min Rain = 0
KBO1 152022Z 08009KT 27/12 A301 RMK A01 T02700115  RH  038%=      5-min Rain = 0
KBO1 152023Z 08007KT 27/11 A301 RMK A01 T02690113  RH  038%=      5-min Rain = 0
KBO1 152024Z 07006KT 27/11 A301 RMK A01 T02680111  RH  038%=      5-min Rain = 0
KBO1 152025Z 09006KT 27/11 A301 RMK A01 T02670111  RH  038%=      5-min Rain = 0
KBO1 152026Z 08006KT 27/11 A301 RMK A01 T02660111  RH  038%=      5-min Rain = 0
KBO1 152027Z 09006KT 27/11 A301 RMK A01 T02670111  RH  038%=      5-min Rain = 0
KBO1 152028Z 08009G14KT 27/12 A301 RMK A01 T02690115  RH  038%=      5-min Rain = 0
KBO1 152029Z 09011KT 27/11 A301 RMK A01 T02720114  RH  037%=      5-min Rain = 0
KBO1 152030Z 10010KT 27/11 A301 RMK A01 T02720113  RH  037%=      5-min Rain = 0
KBO1 152031Z 11011KT 27/11 A301 RMK A01 T02730112  RH  037%=      5-min Rain = 0
KBO1 152032Z 12007KT 27/11 A301 RMK A01 T02720109  RH  036%=      5-min Rain = 0
KBO1 152033Z 11006KT 27/11 A3009 RMK A01 T02690111  RH  037%=      5-min Rain = 0
KBO1 152034Z 08007KT 27/11 A301 RMK A01 T02700110  RH  037%=      5-min Rain = 0
KBO1 152035Z 04006KT 27/11 A3009 RMK A01 T02690108  RH  036%=      5-min Rain = 0
KBO1 152036Z 04007KT 27/11 A3009 RMK A01 T02680108  RH  037%=      5-min Rain = 0
KBO1 152037Z 03006KT 27/11 A3009 RMK A01 T02690107  RH  036%=      5-min Rain = 0
KBO1 152038Z 02003KT 27/10 A3009 RMK A01 T02680104  RH  036%=      5-min Rain = 0
KBO1 152039Z 33002KT 27/10 A3009 RMK A01 T02670104  RH  036%=      5-min Rain = 0
KBO1 152040Z 36004KT 27/11 A3009 RMK A01 T02650105  RH  037%=      5-min Rain = 0
KBO1 152041Z 06003KT 27/11 A3009 RMK A01 T02660108  RH  037%=      5-min Rain = 0
KBO1 152042Z 06011KT 27/11 A3009 RMK A01 T02680111  RH  037%=      5-min Rain = 0
KBO1 152043Z 06010KT 27/11 A3009 RMK A01 T02710107  RH  036%=      5-min Rain = 0
KBO1 152044Z 06006KT 27/11 A3009 RMK A01 T02710107  RH  036%=      5-min Rain = 0
KBO1 152045Z 05001KT 27/11 A3009 RMK A01 T02700108  RH  036%=      5-min Rain = 0
KBO1 152046Z 06003KT 27/11 A3009 RMK A01 T02680110  RH  037%=      5-min Rain = 0
KBO1 152047Z 06008KT 27/11 A3009 RMK A01 T02680112  RH  038%=      5-min Rain = 0
KBO1 152048Z 08013KT 27/12 A3009 RMK A01 T02700116  RH  038%=      5-min Rain = 0
KBO1 152049Z 08013KT 27/12 A3009 RMK A01 T02720116  RH  038%=      5-min Rain = 0
KBO1 152050Z 08010KT 27/12 A3009 RMK A01 T02720115  RH  038%=      5-min Rain = 0
KBO1 152051Z 08007KT 27/12 A3008 RMK A01 T02710115  RH  038%=      5-min Rain = 0
KBO1 152052Z 09009KT 27/12 A3008 RMK A01 T02710115  RH  038%=      5-min Rain = 0
KBO1 152053Z 09006KT 27/12 A3008 RMK A01 T02710115  RH  038%=      5-min Rain = 0
KBO1 152054Z 08009KT 27/12 A3008 RMK A01 T02720117  RH  038%=      5-min Rain = 0
KBO1 152055Z 07009G14KT 27/12 A3008 RMK A01 T02740117  RH  037%=      5-min Rain = 0
KBO1 152056Z 08009KT 28/12 A3008 RMK A01 T02750116  RH  037%=      5-min Rain = 0
KBO1 152057Z 10008G13KT 28/12 A3008 RMK A01 T02750115  RH  037%=      5-min Rain = 0
KBO1 152058Z 09007KT 27/11 A3008 RMK A01 T02740114  RH  037%=      5-min Rain = 0
KBO1 152059Z 08005KT 28/11 A3008 RMK A01 T02750113  RH  037%=      5-min Rain = 0
KBO1 152100Z 10012KT 28/12 A3008 RMK A01 T02760115  RH  037%=      5-min Rain = 0
KBO1 152101Z 10010G16KT 28/11 A3008 RMK A01 T02770113  RH  036%=      5-min Rain = 0
KBO1 152102Z 11008KT 28/11 A3008 RMK A01 T02760112  RH  036%=      5-min Rain = 0
KBO1 152103Z 10009KT 27/11 A3008 RMK A01 T02740113  RH  037%=      5-min Rain = 0
KBO1 152104Z 11009KT 28/11 A3008 RMK A01 T02750112  RH  036%=      5-min Rain = 0
KBO1 152105Z 11008KT 28/11 A3008 RMK A01 T02750113  RH  036%=      5-min Rain = 0
KBO1 152106Z 11008KT 28/11 A3008 RMK A01 T02760111  RH  036%=      5-min Rain = 0
KBO1 152107Z 11004KT 28/11 A3008 RMK A01 T02760106  RH  035%=      5-min Rain = 0
KBO1 152108Z 09009KT 27/11 A3008 RMK A01 T02740108  RH  035%=      5-min Rain = 0
KBO1 152109Z 09010KT 27/11 A3008 RMK A01 T02740106  RH  035%=      5-min Rain = 0
KBO1 152110Z 08007KT 28/11 A3008 RMK A01 T02760107  RH  035%=      5-min Rain = 0
KBO1 152111Z 11008KT 27/11 A3007 RMK A01 T02730108  RH  036%=      5-min Rain = 0
KBO1 152112Z 12006KT 27/11 A3007 RMK A01 T02720107  RH  036%=      5-min Rain = 0
KBO1 152113Z 11004KT 27/11 A3007 RMK A01 T02740106  RH  035%=      5-min Rain = 0
KBO1 152114Z 07004KT 28/11 A3007 RMK A01 T02760110  RH  035%=      5-min Rain = 0
KBO1 152115Z 07003KT 28/11 A3007 RMK A01 T02780111  RH  035%=      5-min Rain = 0
KBO1 152116Z 12007KT 28/11 A3007 RMK A01 T02790106  RH  034%=      5-min Rain = 0
KBO1 152117Z 12007KT 28/10 A3007 RMK A01 T02760103  RH  034%=      5-min Rain = 0
KBO1 152118Z 10005KT 28/10 A3007 RMK A01 T02750100  RH  033%=      5-min Rain = 0
KBO1 152119Z 12005KT 27/10 A3007 RMK A01 T02710099  RH  034%=      5-min Rain = 0
KBO1 152120Z 11009KT 27/10 A3007 RMK A01 T02700102  RH  035%=      5-min Rain = 0
KBO1 152121Z 13007KT 27/11 A3007 RMK A01 T02700105  RH  036%=      5-min Rain = 0
KBO1 152122Z 16008KT 27/11 A3007 RMK A01 T02710105  RH  035%=      5-min Rain = 0
KBO1 152123Z 19006KT 27/10 A3006 RMK A01 T02730104  RH  035%=      5-min Rain = 0
KBO1 152124Z 19004KT 27/10 A3006 RMK A01 T02730104  RH  035%=      5-min Rain = 0
KBO1 152125Z 14007KT 28/11 A3006 RMK A01 T02750105  RH  035%=      5-min Rain = 0
KBO1 152126Z 15009KT 28/10 A3006 RMK A01 T02760102  RH  034%=      5-min Rain = 0
KBO1 152127Z 14009KT 28/10 A3006 RMK A01 T02760103  RH  034%=      5-min Rain = 0
KBO1 152128Z 14005KT 28/10 A3006 RMK A01 T02750102  RH  034%=      5-min Rain = 0
KBO1 152129Z 10006KT 27/10 A3006 RMK A01 T02730101  RH  034%=      5-min Rain = 0
KBO1 152130Z 09005KT 27/10 A3006 RMK A01 T02710100  RH  034%=      5-min Rain = 0
KBO1 152131Z 08007KT 27/10 A3006 RMK A01 T02700101  RH  034%=      5-min Rain = 0
KBO1 152132Z 09007KT 27/10 A3006 RMK A01 T02710099  RH  034%=      5-min Rain = 0
KBO1 152133Z 10007KT 27/10 A3006 RMK A01 T02730096  RH  033%=      5-min Rain = 0
KBO1 152134Z 10006KT 28/10 A3006 RMK A01 T02750095  RH  032%=      5-min Rain = 0
KBO1 152135Z 09004KT 28/09 A3006 RMK A01 T02760094  RH  032%=      5-min Rain = 0
KBO1 152136Z 07006KT 28/10 A3006 RMK A01 T02770099  RH  033%=      5-min Rain = 0
KBO1 152137Z 13005KT 28/10 A3006 RMK A01 T02790102  RH  033%=      5-min Rain = 0
KBO1 152138Z 16007KT 28/10 A3005 RMK A01 T02820100  RH  032%=      5-min Rain = 0
KBO1 152139Z 14006KT 28/10 A3005 RMK A01 T02810099  RH  032%=      5-min Rain = 0
KBO1 152140Z 10006KT 28/10 A3005 RMK A01 T02800097  RH  032%=      5-min Rain = 0
KBO1 152141Z 10011KT 28/11 A3005 RMK A01 T02800107  RH  034%=      5-min Rain = 0
KBO1 152142Z 12013KT 28/11 A3005 RMK A01 T02820106  RH  033%=      5-min Rain = 0
KBO1 152143Z 12014KT 28/11 A3005 RMK A01 T02840107  RH  033%=      5-min Rain = 0
KBO1 152144Z 13011KT 28/11 A3005 RMK A01 T02830106  RH  033%=      5-min Rain = 0
KBO1 152145Z 14010KT 28/11 A3005 RMK A01 T02810105  RH  033%=      5-min Rain = 0
KBO1 152146Z 13010G16KT 28/10 A3005 RMK A01 T02780102  RH  033%=      5-min Rain = 0
KBO1 152147Z 15005KT 27/10 A3004 RMK A01 T02740102  RH  034%=      5-min Rain = 0
KBO1 152148Z 08011KT 27/10 A3005 RMK A01 T02740103  RH  034%=      5-min Rain = 0
KBO1 152149Z 08012KT 28/10 A3005 RMK A01 T02770102  RH  034%=      5-min Rain = 0
KBO1 152150Z 07014G19KT 28/10 A3005 RMK A01 T02780102  RH  033%=      5-min Rain = 0
KBO1 152151Z 08014KT 28/10 A3005 RMK A01 T02800102  RH  033%=      5-min Rain = 0
KBO1 152152Z 07012KT 28/10 A3005 RMK A01 T02800102  RH  033%=      5-min Rain = 0
KBO1 152153Z 09010KT 28/10 A3005 RMK A01 T02780101  RH  033%=      5-min Rain = 0
KBO1 152154Z 08006KT 27/10 A3005 RMK A01 T02730099  RH  034%=      5-min Rain = 0
KBO1 152155Z 08006G13KT 27/10 A3005 RMK A01 T02710101  RH  034%=      5-min Rain = 0
KBO1 152156Z 07010KT 27/10 A3005 RMK A01 T02730101  RH  034%=      5-min Rain = 0
KBO1 152157Z 07006KT 28/10 A3005 RMK A01 T02750100  RH  033%=      5-min Rain = 0
KBO1 152158Z 05008KT 28/10 A3004 RMK A01 T02770100  RH  033%=      5-min Rain = 0
KBO1 152159Z 07008KT 28/10 A3004 RMK A01 T02760100  RH  033%=      5-min Rain = 0
KBO1 152200Z 08007KT 28/10 A3004 RMK A01 T02760100  RH  033%=      5-min Rain = 0
KBO1 152201Z 10011KT 28/10 A3004 RMK A01 T02790102  RH  033%=      5-min Rain = 0
KBO1 152202Z 10009KT 28/10 A3004 RMK A01 T02830101  RH  032%=      5-min Rain = 0
KBO1 152203Z 09009KT 29/10 A3004 RMK A01 T02860100  RH  031%=      5-min Rain = 0
KBO1 152204Z 07007KT 29/10 A3004 RMK A01 T02860097  RH  031%=      5-min Rain = 0
KBO1 152205Z 06007KT 28/10 A3004 RMK A01 T02840098  RH  031%=      5-min Rain = 0
KBO1 152206Z 06004KT 28/10 A3004 RMK A01 T02840098  RH  031%=      5-min Rain = 0
KBO1 152207Z 08003KT 28/10 A3004 RMK A01 T02840096  RH  031%=      5-min Rain = 0
KBO1 152208Z 06005KT 28/10 A3004 RMK A01 T02830097  RH  031%=      5-min Rain = 0
KBO1 152209Z 05006KT 28/10 A3004 RMK A01 T02840096  RH  031%=      5-min Rain = 0
KBO1 152210Z 06005KT 28/10 A3004 RMK A01 T02840096  RH  031%=      5-min Rain = 0
KBO1 152211Z 05008KT 28/10 A3004 RMK A01 T02840096  RH  031%=      5-min Rain = 0
KBO1 152212Z 05008KT 29/10 A3004 RMK A01 T02850096  RH  031%=      5-min Rain = 0
KBO1 152213Z 05007KT 29/09 A3004 RMK A01 T02860094  RH  030%=      5-min Rain = 0
KBO1 152214Z 08010KT 29/10 A3004 RMK A01 T02860095  RH  030%=      5-min Rain = 0
KBO1 152215Z 07008KT 29/10 A3004 RMK A01 T02880096  RH  030%=      5-min Rain = 0
KBO1 152216Z 08008KT 29/10 A3004 RMK A01 T02880099  RH  031%=      5-min Rain = 0
KBO1 152217Z 06008KT 29/10 A3004 RMK A01 T02870095  RH  030%=      5-min Rain = 0
KBO1 152218Z 06006KT 28/10 A3004 RMK A01 T02830095  RH  031%=      5-min Rain = 0
KBO1 152219Z 04006KT 28/10 A3003 RMK A01 T02800096  RH  032%=      5-min Rain = 0
KBO1 152220Z 03005KT 28/10 A3003 RMK A01 T02800095  RH  031%=      5-min Rain = 0
KBO1 152221Z 09005KT 28/10 A3003 RMK A01 T02810098  RH  032%=      5-min Rain = 0
KBO1 152222Z 07002KT 29/10 A3003 RMK A01 T02850097  RH  031%=      5-min Rain = 0
KBO1 152223Z 03001KT 29/10 A3003 RMK A01 T02850097  RH  031%=      5-min Rain = 0
KBO1 152224Z 06002KT 28/10 A3003 RMK A01 T02830095  RH  031%=      5-min Rain = 0
KBO1 152225Z 09006G11KT 28/10 A3003 RMK A01 T02820096  RH  031%=      5-min Rain = 0
KBO1 152226Z 10008KT 28/10 A3003 RMK A01 T02820096  RH  031%=      5-min Rain = 0
KBO1 152227Z 11011KT 28/10 A3003 RMK A01 T02810096  RH  031%=      5-min Rain = 0
KBO1 152228Z 11012KT 28/09 A3003 RMK A01 T02790094  RH  032%=      5-min Rain = 0
KBO1 152229Z 13008KT 28/09 A3003 RMK A01 T02760093  RH  032%=      5-min Rain = 0
KBO1 152230Z 12006KT 28/09 A3003 RMK A01 T02750094  RH  032%=      5-min Rain = 0
KBO1 152231Z 08007KT 28/10 A3003 RMK A01 T02750095  RH  032%=      5-min Rain = 0
KBO1 152232Z 08007KT 28/10 A3002 RMK A01 T02750095  RH  032%=      5-min Rain = 0
KBO1 152233Z 08009KT 27/10 A3002 RMK A01 T02740095  RH  033%=      5-min Rain = 0
KBO1 152234Z 09010KT 27/10 A3002 RMK A01 T02730101  RH  034%=      5-min Rain = 0
KBO1 152235Z 11009KT 27/10 A3002 RMK A01 T02720096  RH  033%=      5-min Rain = 0
KBO1 152236Z 11007KT 27/10 A3002 RMK A01 T02710095  RH  033%=      5-min Rain = 0
KBO1 152237Z 11006KT 27/10 A3002 RMK A01 T02710095  RH  033%=      5-min Rain = 0
KBO1 152238Z 12008KT 27/10 A3002 RMK A01 T02710096  RH  033%=      5-min Rain = 0
KBO1 152239Z 12010G15KT 27/10 A3002 RMK A01 T02710096  RH  033%=      5-min Rain = 0
KBO1 152240Z 11016KT 27/10 A3002 RMK A01 T02720098  RH  034%=      5-min Rain = 0
KBO1 152241Z 11012KT 27/10 A3002 RMK A01 T02710097  RH  033%=      5-min Rain = 0
KBO1 152242Z 11009KT 27/10 A3002 RMK A01 T02690097  RH  034%=      5-min Rain = 0
KBO1 152243Z 12008KT 27/10 A3002 RMK A01 T02680098  RH  034%=      5-min Rain = 0
KBO1 152244Z 13007KT 27/10 A3002 RMK A01 T02670098  RH  035%=      5-min Rain = 0
KBO1 152245Z 14007KT 27/10 A3002 RMK A01 T02670098  RH  035%=      5-min Rain = 0
KBO1 152246Z 12008KT 27/10 A3002 RMK A01 T02670098  RH  035%=      5-min Rain = 0
KBO1 152247Z 11009KT 27/10 A3002 RMK A01 T02670097  RH  034%=      5-min Rain = 0
KBO1 152248Z 10010KT 27/09 A3001 RMK A01 T02670094  RH  033%=      5-min Rain = 0
KBO1 152249Z 09008KT 27/09 A3001 RMK A01 T02670094  RH  034%=      5-min Rain = 0
KBO1 152250Z 09008KT 27/10 A3001 RMK A01 T02670096  RH  034%=      5-min Rain = 0
KBO1 152251Z 10008KT 27/10 A3001 RMK A01 T02660095  RH  034%=      5-min Rain = 0
KBO1 152252Z 09007KT 27/10 A3001 RMK A01 T02660095  RH  034%=      5-min Rain = 0
KBO1 152253Z 08010KT 27/10 A3001 RMK A01 T02660098  RH  035%=      5-min Rain = 0
KBO1 152254Z 08009KT 27/10 A3001 RMK A01 T02660099  RH  035%=      5-min Rain = 0
KBO1 152255Z 07010G16KT 27/10 A30 RMK A01 T02660100  RH  035%=      5-min Rain = 0
KBO1 152256Z 08013KT 27/10 A30 RMK A01 T02650099  RH  035%=      5-min Rain = 0
KBO1 152257Z 08011KT 26/10 A30 RMK A01 T02640097  RH  035%=      5-min Rain = 0
KBO1 152258Z 08009KT 26/10 A30 RMK A01 T02630097  RH  035%=      5-min Rain = 0
KBO1 152259Z 07010KT 26/10 A30 RMK A01 T02630096  RH  035%=      5-min Rain = 0
KBO1 152300Z 07011KT 26/10 A30 RMK A01 T02630098  RH  035%=      5-min Rain = 0
KBO1 152301Z 06010KT 26/10 A30 RMK A01 T02630099  RH  036%=      5-min Rain = 0
KBO1 152302Z 08010KT 26/10 A30 RMK A01 T02630098  RH  035%=      5-min Rain = 0
KBO1 152303Z 10010KT 26/10 A30 RMK A01 T02630098  RH  035%=      5-min Rain = 0
KBO1 152304Z 09010KT 26/10 A2999 RMK A01 T02630097  RH  035%=      5-min Rain = 0
KBO1 152305Z 09011KT 26/10 A2999 RMK A01 T02630097  RH  035%=      5-min Rain = 0
KBO1 152306Z 08013KT 26/10 A2999 RMK A01 T02620101  RH  036%=      5-min Rain = 0
KBO1 152307Z 08013KT 26/11 A2999 RMK A01 T02610106  RH  038%=      5-min Rain = 0
KBO1 152308Z 08013KT 26/11 A2999 RMK A01 T02600109  RH  039%=      5-min Rain = 0
KBO1 152309Z 09012KT 26/11 A2999 RMK A01 T02590110  RH  039%=      5-min Rain = 0
KBO1 152310Z 10011KT 26/11 A2999 RMK A01 T02580110  RH  039%=      5-min Rain = 0
KBO1 152311Z 09014KT 26/11 A30 RMK A01 T02580110  RH  039%=      5-min Rain = 0
KBO1 152312Z 10013KT 26/11 A30 RMK A01 T02590110  RH  039%=      5-min Rain = 0
KBO1 152313Z 11013KT 26/11 A30 RMK A01 T02580110  RH  039%=      5-min Rain = 0
KBO1 152314Z 11014KT 26/11 A30 RMK A01 T02580111  RH  040%=      5-min Rain = 0
KBO1 152315Z 11013KT 26/11 A30 RMK A01 T02570111  RH  040%=      5-min Rain = 0
KBO1 152316Z 11013KT 26/11 A30 RMK A01 T02570111  RH  040%=      5-min Rain = 0
KBO1 152317Z 10013KT 26/11 A30 RMK A01 T02560111  RH  040%=      5-min Rain = 0
KBO1 152318Z 11013KT 26/11 A3001 RMK A01 T02550111  RH  040%=      5-min Rain = 0
KBO1 152319Z 11011KT 26/11 A3001 RMK A01 T02560111  RH  040%=      5-min Rain = 0
KBO1 152320Z 10011KT 26/11 A3001 RMK A01 T02550112  RH  041%=      5-min Rain = 0
KBO1 152321Z 12010KT 26/11 A3001 RMK A01 T02550114  RH  041%=      5-min Rain = 0
KBO1 152322Z 12011KT 25/12 A3001 RMK A01 T02530117  RH  043%=      5-min Rain = 0
KBO1 152323Z 12010KT 25/12 A3001 RMK A01 T02510120  RH  044%=      5-min Rain = 0
KBO1 152324Z 13012KT 25/12 A3001 RMK A01 T02490121  RH  045%=      5-min Rain = 0
KBO1 152325Z 14012KT 25/13 A3001 RMK A01 T02460126  RH  047%=      5-min Rain = 0
KBO1 152326Z 13010KT 24/13 A3001 RMK A01 T02430131  RH  050%=      5-min Rain = 0
KBO1 152327Z 13011KT 24/14 A3001 RMK A01 T02380140  RH  054%=      5-min Rain = 0
KBO1 152328Z 13010KT 23/15 A3001 RMK A01 T02300146  RH  059%=      5-min Rain = 0
KBO1 152329Z 13009KT 22/14 A3002 RMK A01 T02240144  RH  061%=      5-min Rain = 0
KBO1 152330Z 15009KT 22/15 A3002 RMK A01 T02200145  RH  062%=      5-min Rain = 0
KBO1 152331Z 17009KT 22/12 A3003 RMK A01 T02180123  RH  055%=      5-min Rain = 0.03
KBO1 152332Z 18010KT 22/14 A3004 RMK A01 T02170138  RH  061%=      5-min Rain = 0.02
KBO1 152333Z 20006KT 21/14 A3004 RMK A01 T02100144  RH  066%=      5-min Rain = 0.03
KBO1 152334Z 23007KT 21/14 A3004 RMK A01 T02060140  RH  066%=      5-min Rain = 0.02
KBO1 152335Z 24013KT 21/14 A3005 RMK A01 T02050140  RH  066%=      5-min Rain = 0.03
KBO1 152336Z 24014G19KT 20/13 A3005 RMK A01 T02030128  RH  062%=      5-min Rain = 0.03
KBO1 152337Z 27010KT 20/13 A3005 RMK A01 T01980134  RH  066%=      5-min Rain = 0.01
KBO1 152338Z 28009KT 19/13 A3005 RMK A01 T01920133  RH  068%=      5-min Rain = 0.01
KBO1 152339Z 28010KT 19/12 A3006 RMK A01 T01890117  RH  063%=      5-min Rain = 0
KBO1 152340Z 26014KT 19/11 A3008 RMK A01 T01930110  RH  059%=      5-min Rain = 0
KBO1 152341Z 27015G22KT 19/12 A3008 RMK A01 T01940116  RH  061%=      5-min Rain = 0
KBO1 152342Z 30024G34KT 20/12 A3008 RMK A01 T01950122  RH  062%=      5-min Rain = 0
KBO1 152343Z 32024KT 20/13 A3009 RMK A01 T01950128  RH  065%=      5-min Rain = 0.01
KBO1 152344Z 30021G27KT 19/12 A3009 RMK A01 T01930118  RH  062%=      5-min Rain = 0.01
KBO1 152345Z 29021KT 19/12 A3009 RMK A01 T01890121  RH  065%=      5-min Rain = 0
KBO1 152346Z 29023G29KT 18/12 A3009 RMK A01 T01830124  RH  069%=      5-min Rain = 0.01
KBO1 152347Z 30028KT 18/12 A3008 RMK A01 T01770123  RH  070%=      5-min Rain = 0
KBO1 152348Z 29027G34KT 18/13 A3009 RMK A01 T01760126  RH  073%=      5-min Rain = 0.02
KBO1 152349Z 30026KT 18/13 A3009 RMK A01 T01760133  RH  076%=      5-min Rain = 0.03
KBO1 152350Z 32030G39KT 17/14 A3009 RMK A01 T01730137  RH  079%=      5-min Rain = 0.01
KBO1 152351Z 33029G35KT 17/14 A3008 RMK A01 T01690137  RH  081%=      5-min Rain = 0.03
KBO1 152352Z 33032G39KT 16/14 A3008 RMK A01 T01620136  RH  084%=      5-min Rain = 0.03
KBO1 152353Z 34030G37KT 16/14 A3007 RMK A01 T01560136  RH  088%=      5-min Rain = 0.03
KBO1 152354Z 35033G39KT 15/13 A3007 RMK A01 T01500133  RH  090%=      5-min Rain = 0.01
KBO1 152355Z 35027G36KT 14/13 A3006 RMK A01 T01440129  RH  090%=      5-min Rain = 0.02
KBO1 152356Z 02021G26KT 14/13 A3006 RMK A01 T01410128  RH  092%=      5-min Rain = 0
KBO1 152357Z 02025KT 14/13 A3005 RMK A01 T01410129  RH  093%=      5-min Rain = 0.01
KBO1 152358Z 03025KT 14/13 A3005 RMK A01 T01400130  RH  093%=      5-min Rain = 0
KBO1 152359Z 03019G26KT 14/13 A3006 RMK A01 T01390128  RH  093%=      5-min Rain = 0
KBO1 160000Z 03018G26KT 14/13 A3006 RMK A01 T01400127  RH  092%=      5-min Rain = 0
KBO1 160001Z 03021G30KT 14/13 A3006 RMK A01 T01420128  RH  091%=      5-min Rain = 0
KBO1 160002Z 04021G26KT 15/13 A3006 RMK A01 T01450129  RH  090%=      5-min Rain = 0
KBO1 160003Z 04024KT 15/13 A3006 RMK A01 T01450128  RH  089%=      5-min Rain = 0
KBO1 160004Z 04018KT 15/13 A3006 RMK A01 T01470126  RH  087%=      5-min Rain = 0
KBO1 160005Z 05016KT 15/13 A3006 RMK A01 T01470127  RH  088%=      5-min Rain = 0
KBO1 160006Z 05015KT 15/13 A3005 RMK A01 T01460125  RH  087%=      5-min Rain = 0
KBO1 160007Z 07015KT 15/12 A3005 RMK A01 T01490122  RH  084%=      5-min Rain = 0
KBO1 160008Z 05018KT 15/12 A3005 RMK A01 T01530124  RH  083%=      5-min Rain = 0
KBO1 160009Z 05016KT 16/13 A3005 RMK A01 T01550126  RH  083%=      5-min Rain = 0
KBO1 160010Z 04018KT 16/13 A3005 RMK A01 T01560126  RH  083%=      5-min Rain = 0
KBO1 160011Z 04014KT 16/12 A3004 RMK A01 T01560123  RH  081%=      5-min Rain = 0
KBO1 160012Z 04014KT 16/13 A3004 RMK A01 T01550126  RH  082%=      5-min Rain = 0
KBO1 160013Z 04016KT 16/13 A3004 RMK A01 T01550125  RH  082%=      5-min Rain = 0
KBO1 160014Z 03019KT 16/12 A3004 RMK A01 T01550120  RH  079%=      5-min Rain = 0
KBO1 160015Z 02018KT 16/12 A3004 RMK A01 T01570119  RH  078%=      5-min Rain = 0
KBO1 160016Z 01018KT 16/12 A3004 RMK A01 T01580121  RH  079%=      5-min Rain = 0
KBO1 160017Z 01019KT 16/12 A3004 RMK A01 T01580118  RH  077%=      5-min Rain = 0
KBO1 160018Z 00016KT 16/12 A3004 RMK A01 T01570123  RH  080%=      5-min Rain = 0
KBO1 160019Z 01017G23KT 15/12 A3003 RMK A01 T01540119  RH  079%=      5-min Rain = 0
KBO1 160020Z 03018KT 16/11 A3003 RMK A01 T01550114  RH  076%=      5-min Rain = 0
KBO1 160021Z 03019KT 16/11 A3003 RMK A01 T01620110  RH  071%=      5-min Rain = 0
KBO1 160022Z 02018KT 16/11 A3003 RMK A01 T01630111  RH  071%=      5-min Rain = 0
KBO1 160023Z 02016KT 16/11 A3003 RMK A01 T01600112  RH  073%=      5-min Rain = 0
KBO1 160024Z 03016KT 16/11 A3003 RMK A01 T01570112  RH  074%=      5-min Rain = 0
KBO1 160025Z 04015KT 16/11 A3003 RMK A01 T01560114  RH  076%=      5-min Rain = 0
KBO1 160026Z 04015KT 16/11 A3003 RMK A01 T01550114  RH  076%=      5-min Rain = 0
KBO1 160027Z 05013KT 16/11 A3003 RMK A01 T01550113  RH  076%=      5-min Rain = 0
KBO1 160028Z 05011KT 16/12 A3003 RMK A01 T01550115  RH  077%=      5-min Rain = 0
KBO1 160029Z 05011KT 16/11 A3003 RMK A01 T01560113  RH  076%=      5-min Rain = 0
KBO1 160030Z 05010KT 16/12 A3003 RMK A01 T01570118  RH  077%=      5-min Rain = 0
KBO1 160031Z 05012KT 16/12 A3003 RMK A01 T01580117  RH  076%=      5-min Rain = 0
KBO1 160032Z 06013KT 16/12 A3003 RMK A01 T01580115  RH  075%=      5-min Rain = 0
KBO1 160033Z 06013KT 16/12 A3003 RMK A01 T01590116  RH  076%=      5-min Rain = 0
KBO1 160034Z 06013KT 16/12 A3003 RMK A01 T01600115  RH  075%=      5-min Rain = 0
KBO1 160035Z 06011KT 16/12 A3003 RMK A01 T01610118  RH  076%=      5-min Rain = 0
KBO1 160036Z 06010KT 16/12 A3003 RMK A01 T01610118  RH  075%=      5-min Rain = 0
KBO1 160037Z 06013KT 16/12 A3003 RMK A01 T01620115  RH  074%=      5-min Rain = 0
KBO1 160038Z 06011KT 16/11 A3003 RMK A01 T01620113  RH  073%=      5-min Rain = 0
KBO1 160039Z 06011KT 16/12 A3003 RMK A01 T01610116  RH  075%=      5-min Rain = 0
KBO1 160040Z 06011KT 16/12 A3003 RMK A01 T01610118  RH  076%=      5-min Rain = 0
KBO1 160041Z 06011KT 16/12 A3003 RMK A01 T01610118  RH  076%=      5-min Rain = 0
KBO1 160042Z 07011KT 16/12 A3003 RMK A01 T01600119  RH  076%=      5-min Rain = 0
KBO1 160043Z 07011KT 16/12 A3003 RMK A01 T01600119  RH  077%=      5-min Rain = 0
KBO1 160044Z 07011KT 16/12 A3003 RMK A01 T01600119  RH  076%=      5-min Rain = 0
KBO1 160045Z 07013KT 16/12 A3002 RMK A01 T01600116  RH  075%=      5-min Rain = 0
KBO1 160046Z 07014KT 16/11 A3002 RMK A01 T01600111  RH  073%=      5-min Rain = 0
KBO1 160047Z 07013KT 16/11 A3002 RMK A01 T01590109  RH  072%=      5-min Rain = 0
KBO1 160048Z 07013KT 16/11 A3002 RMK A01 T01590108  RH  072%=      5-min Rain = 0
KBO1 160049Z 06011KT 16/11 A3002 RMK A01 T01580109  RH  073%=      5-min Rain = 0
KBO1 160050Z 06009KT 16/11 A3002 RMK A01 T01570110  RH  073%=      5-min Rain = 0
KBO1 160051Z 06009KT 16/11 A3002 RMK A01 T01570114  RH  075%=      5-min Rain = 0
KBO1 160052Z 07010KT 16/11 A3002 RMK A01 T01570113  RH  075%=      5-min Rain = 0
KBO1 160053Z 07011KT 16/11 A3002 RMK A01 T01570112  RH  075%=      5-min Rain = 0
KBO1 160054Z 07012KT 16/11 A3002 RMK A01 T01560110  RH  074%=      5-min Rain = 0
KBO1 160055Z 07010KT 16/11 A3002 RMK A01 T01550110  RH  074%=      5-min Rain = 0
KBO1 160056Z 07011KT 16/11 A3002 RMK A01 T01550110  RH  074%=      5-min Rain = 0
KBO1 160057Z 07010KT 16/11 A3002 RMK A01 T01550109  RH  074%=      5-min Rain = 0
KBO1 160058Z 07010KT 16/11 A3002 RMK A01 T01550109  RH  074%=      5-min Rain = 0
KBO1 160059Z 07009KT 16/11 A3002 RMK A01 T01560110  RH  074%=      5-min Rain = 0
KBO1 160100Z 06009KT 16/11 A3002 RMK A01 T01560107  RH  073%=      5-min Rain = 0
KBO1 160101Z 06008KT 16/11 A3002 RMK A01 T01560106  RH  072%=      5-min Rain = 0
KBO1 160102Z 06010KT 16/11 A3002 RMK A01 T01560107  RH  073%=      5-min Rain = 0
KBO1 160103Z 06010KT 16/11 A3002 RMK A01 T01560106  RH  072%=      5-min Rain = 0
KBO1 160104Z 07010KT 16/11 A3002 RMK A01 T01560106  RH  072%=      5-min Rain = 0
KBO1 160105Z 07010KT 16/11 A3002 RMK A01 T01570108  RH  073%=      5-min Rain = 0
KBO1 160106Z 06010KT 16/11 A3003 RMK A01 T01570106  RH  072%=      5-min Rain = 0
KBO1 160107Z 06009KT 16/11 A3002 RMK A01 T01570107  RH  072%=      5-min Rain = 0
KBO1 160108Z 06010KT 16/11 A3002 RMK A01 T01580107  RH  072%=      5-min Rain = 0
KBO1 160109Z 05010KT 16/11 A3002 RMK A01 T01580107  RH  072%=      5-min Rain = 0
KBO1 160110Z 05010KT 16/11 A3002 RMK A01 T01580108  RH  072%=      5-min Rain = 0
KBO1 160111Z 05011KT 16/11 A3003 RMK A01 T01590108  RH  072%=      5-min Rain = 0
KBO1 160112Z 05011KT 16/11 A3003 RMK A01 T01590108  RH  072%=      5-min Rain = 0
KBO1 160113Z 06011KT 16/11 A3002 RMK A01 T01590107  RH  071%=      5-min Rain = 0
KBO1 160114Z 06012KT 16/11 A3002 RMK A01 T01590107  RH  071%=      5-min Rain = 0
KBO1 160115Z 06012KT 16/11 A3002 RMK A01 T01590106  RH  070%=      5-min Rain = 0
KBO1 160116Z 06009KT 16/11 A3002 RMK A01 T01590106  RH  071%=      5-min Rain = 0
KBO1 160117Z 05011KT 16/11 A3003 RMK A01 T01590105  RH  070%=      5-min Rain = 0
KBO1 160118Z 05009KT 16/10 A3003 RMK A01 T01590104  RH  070%=      5-min Rain = 0
KBO1 160119Z 05008KT 16/11 A3003 RMK A01 T01590106  RH  071%=      5-min Rain = 0
KBO1 160120Z 05007KT 16/11 A3002 RMK A01 T01590105  RH  070%=      5-min Rain = 0
KBO1 160121Z 05008KT 16/11 A3002 RMK A01 T01590105  RH  071%=      5-min Rain = 0
KBO1 160122Z 05008KT 16/10 A3002 RMK A01 T01590104  RH  070%=      5-min Rain = 0
KBO1 160123Z 05009KT 16/11 A3002 RMK A01 T01600106  RH  070%=      5-min Rain = 0
KBO1 160124Z 06008KT 16/11 A3002 RMK A01 T01600105  RH  070%=      5-min Rain = 0
KBO1 160125Z 06008KT 16/10 A3002 RMK A01 T01600104  RH  069%=      5-min Rain = 0
KBO1 160126Z 07008KT 16/10 A3002 RMK A01 T01600104  RH  069%=      5-min Rain = 0
KBO1 160127Z 06007KT 16/11 A3002 RMK A01 T01600105  RH  070%=      5-min Rain = 0
KBO1 160128Z 07007KT 16/11 A3002 RMK A01 T01600105  RH  070%=      5-min Rain = 0
KBO1 160129Z 07007KT 16/11 A3002 RMK A01 T01600106  RH  070%=      5-min Rain = 0
KBO1 160130Z 07006KT 16/11 A3002 RMK A01 T01600105  RH  070%=      5-min Rain = 0
KBO1 160131Z 06006KT 16/11 A3002 RMK A01 T01600105  RH  070%=      5-min Rain = 0
KBO1 160132Z 06006KT 16/10 A3002 RMK A01 T01600104  RH  069%=      5-min Rain = 0
KBO1 160133Z 06006KT 16/11 A3002 RMK A01 T01600105  RH  070%=      5-min Rain = 0
KBO1 160134Z 06006KT 16/10 A3002 RMK A01 T01600104  RH  069%=      5-min Rain = 0
KBO1 160135Z 07006KT 16/10 A3002 RMK A01 T01600104  RH  069%=      5-min Rain = 0
KBO1 160136Z 07006KT 16/10 A3002 RMK A01 T01600104  RH  069%=      5-min Rain = 0
KBO1 160137Z 07006KT 16/11 A3002 RMK A01 T01600106  RH  070%=      5-min Rain = 0
KBO1 160138Z 07005KT 16/11 A3002 RMK A01 T01600106  RH  070%=      5-min Rain = 0
KBO1 160139Z 07006KT 16/11 A3002 RMK A01 T01600106  RH  070%=      5-min Rain = 0
KBO1 160140Z 07006KT 16/11 A3002 RMK A01 T01600107  RH  071%=      5-min Rain = 0
KBO1 160141Z 06006KT 16/11 A3002 RMK A01 T01600106  RH  070%=      5-min Rain = 0
KBO1 160142Z 06006KT 16/11 A3002 RMK A01 T01600105  RH  070%=      5-min Rain = 0
KBO1 160143Z 06006KT 16/11 A3002 RMK A01 T01600105  RH  070%=      5-min Rain = 0
KBO1 160144Z 06006KT 16/11 A3002 RMK A01 T01600105  RH  070%=      5-min Rain = 0
KBO1 160145Z 07006KT 16/11 A3002 RMK A01 T01600106  RH  070%=      5-min Rain = 0
KBO1 160146Z 07007KT 16/11 A3002 RMK A01 T01600106  RH  070%=      5-min Rain = 0
KBO1 160147Z 08007KT 16/11 A3002 RMK A01 T01600106  RH  070%=      5-min Rain = 0
KBO1 160148Z 08007KT 16/11 A3002 RMK A01 T01600106  RH  070%=      5-min Rain = 0
KBO1 160149Z 08007KT 16/11 A3003 RMK A01 T01600106  RH  070%=      5-min Rain = 0
KBO1 160150Z 08007KT 16/11 A3003 RMK A01 T01600106  RH  070%=      5-min Rain = 0
KBO1 160151Z 08007KT 16/11 A3003 RMK A01 T01600107  RH  071%=      5-min Rain = 0
KBO1 160152Z 08007KT 16/11 A3003 RMK A01 T01600108  RH  071%=      5-min Rain = 0
KBO1 160153Z 08007KT 16/11 A3003 RMK A01 T01600107  RH  071%=      5-min Rain = 0
KBO1 160154Z 08007KT 16/11 A3003 RMK A01 T01600106  RH  070%=      5-min Rain = 0
KBO1 160155Z 09008KT 16/11 A3003 RMK A01 T01600106  RH  070%=      5-min Rain = 0
KBO1 160156Z 10008KT 16/11 A3003 RMK A01 T01610106  RH  070%=      5-min Rain = 0
KBO1 160157Z 12009KT 16/11 A3003 RMK A01 T01610111  RH  072%=      5-min Rain = 0
KBO1 160158Z 13009KT 16/11 A3003 RMK A01 T01600114  RH  074%=      5-min Rain = 0
KBO1 160159Z 13008KT 16/12 A3003 RMK A01 T01580116  RH  076%=      5-min Rain = 0
KBO1 160200Z 13009KT 16/12 A3003 RMK A01 T01560116  RH  077%=      5-min Rain = 0
KBO1 160201Z 13008KT 16/12 A3003 RMK A01 T01550115  RH  077%=      5-min Rain = 0
KBO1 160202Z 13008KT 15/12 A3003 RMK A01 T01540115  RH  077%=      5-min Rain = 0
KBO1 160203Z 13007KT 15/11 A3003 RMK A01 T01540114  RH  077%=      5-min Rain = 0
KBO1 160204Z 13008KT 15/11 A3004 RMK A01 T01530114  RH  077%=      5-min Rain = 0
KBO1 160205Z 13007KT 15/11 A3004 RMK A01 T01530114  RH  078%=      5-min Rain = 0
KBO1 160206Z 12008KT 15/11 A3004 RMK A01 T01520114  RH  078%=      5-min Rain = 0
KBO1 160207Z 12009KT 15/11 A3004 RMK A01 T01530111  RH  076%=      5-min Rain = 0
KBO1 160208Z 11008KT 15/11 A3004 RMK A01 T01540111  RH  075%=      5-min Rain = 0
KBO1 160209Z 11008KT 16/11 A3004 RMK A01 T01550111  RH  075%=      5-min Rain = 0
KBO1 160210Z 12008KT 16/11 A3004 RMK A01 T01560110  RH  074%=      5-min Rain = 0
KBO1 160211Z 11009KT 16/11 A3004 RMK A01 T01570109  RH  073%=      5-min Rain = 0
KBO1 160212Z 12007KT 16/11 A3004 RMK A01 T01580110  RH  073%=      5-min Rain = 0
KBO1 160213Z 13008KT 16/11 A3004 RMK A01 T01580112  RH  074%=      5-min Rain = 0
KBO1 160214Z 13009KT 16/11 A3004 RMK A01 T01570112  RH  075%=      5-min Rain = 0
KBO1 160215Z 13009KT 16/11 A3004 RMK A01 T01560113  RH  076%=      5-min Rain = 0
KBO1 160216Z 13010KT 15/11 A3004 RMK A01 T01540114  RH  077%=      5-min Rain = 0
KBO1 160217Z 12009KT 15/11 A3004 RMK A01 T01530114  RH  077%=      5-min Rain = 0
KBO1 160218Z 12009KT 15/11 A3004 RMK A01 T01520114  RH  078%=      5-min Rain = 0
KBO1 160219Z 12008KT 15/11 A3005 RMK A01 T01520114  RH  078%=      5-min Rain = 0
KBO1 160220Z 13008KT 15/11 A3005 RMK A01 T01520114  RH  078%=      5-min Rain = 0
KBO1 160221Z 13008KT 15/11 A3005 RMK A01 T01510113  RH  078%=      5-min Rain = 0
KBO1 160222Z 12008KT 15/11 A3005 RMK A01 T01510112  RH  077%=      5-min Rain = 0
KBO1 160223Z 12007KT 15/11 A3005 RMK A01 T01520112  RH  077%=      5-min Rain = 0
KBO1 160224Z 12007KT 15/11 A3005 RMK A01 T01520114  RH  078%=      5-min Rain = 0
KBO1 160225Z 12008KT 15/11 A3005 RMK A01 T01520113  RH  078%=      5-min Rain = 0
KBO1 160226Z 12008KT 15/11 A3005 RMK A01 T01520113  RH  078%=      5-min Rain = 0
KBO1 160227Z 12008KT 15/11 A3005 RMK A01 T01510112  RH  078%=      5-min Rain = 0
KBO1 160228Z 13008KT 15/11 A3005 RMK A01 T01510113  RH  078%=      5-min Rain = 0
KBO1 160229Z 13009KT 15/11 A3005 RMK A01 T01510113  RH  078%=      5-min Rain = 0
KBO1 160230Z 13008KT 15/11 A3005 RMK A01 T01510112  RH  078%=      5-min Rain = 0
KBO1 160231Z 13009KT 15/11 A3005 RMK A01 T01510112  RH  078%=      5-min Rain = 0
KBO1 160232Z 13009KT 15/11 A3005 RMK A01 T01500112  RH  078%=      5-min Rain = 0
KBO1 160233Z 13009KT 15/11 A3005 RMK A01 T01510112  RH  078%=      5-min Rain = 0
KBO1 160234Z 13009KT 15/11 A3005 RMK A01 T01500112  RH  078%=      5-min Rain = 0
KBO1 160235Z 13008KT 15/11 A3005 RMK A01 T01500112  RH  078%=      5-min Rain = 0
KBO1 160236Z 13009KT 15/11 A3005 RMK A01 T01500112  RH  078%=      5-min Rain = 0
KBO1 160237Z 13008KT 15/11 A3004 RMK A01 T01500111  RH  077%=      5-min Rain = 0
KBO1 160238Z 13008KT 15/11 A3004 RMK A01 T01510111  RH  077%=      5-min Rain = 0
KBO1 160239Z 13008KT 15/11 A3005 RMK A01 T01510111  RH  077%=      5-min Rain = 0
KBO1 160240Z 13009KT 15/11 A3005 RMK A01 T01520111  RH  077%=      5-min Rain = 0
KBO1 160241Z 13009KT 15/11 A3005 RMK A01 T01510111  RH  077%=      5-min Rain = 0
KBO1 160242Z 14009KT 15/11 A3005 RMK A01 T01510112  RH  077%=      5-min Rain = 0
KBO1 160243Z 14009KT 15/11 A3005 RMK A01 T01510112  RH  077%=      5-min Rain = 0
KBO1 160244Z 14009KT 15/11 A3005 RMK A01 T01510113  RH  078%=      5-min Rain = 0
KBO1 160245Z 14009KT 15/11 A3005 RMK A01 T01500113  RH  078%=      5-min Rain = 0
KBO1 160246Z 14008KT 15/11 A3005 RMK A01 T01500113  RH  078%=      5-min Rain = 0
KBO1 160247Z 14009KT 15/11 A3005 RMK A01 T01500113  RH  079%=      5-min Rain = 0
KBO1 160248Z 14008KT 15/11 A3005 RMK A01 T01500113  RH  079%=      5-min Rain = 0
KBO1 160249Z 14008KT 15/11 A3005 RMK A01 T01490113  RH  079%=      5-min Rain = 0
KBO1 160250Z 14008KT 15/11 A3005 RMK A01 T01490114  RH  080%=      5-min Rain = 0
KBO1 160251Z 14009KT 15/11 A3005 RMK A01 T01480114  RH  080%=      5-min Rain = 0
KBO1 160252Z 14010KT 15/11 A3005 RMK A01 T01480114  RH  080%=      5-min Rain = 0
KBO1 160253Z 14010KT 15/12 A3005 RMK A01 T01480115  RH  081%=      5-min Rain = 0
KBO1 160254Z 14011KT 15/12 A3006 RMK A01 T01470115  RH  081%=      5-min Rain = 0
KBO1 160255Z 15010KT 15/12 A3006 RMK A01 T01470115  RH  081%=      5-min Rain = 0
KBO1 160256Z 15009KT 15/12 A3006 RMK A01 T01470115  RH  081%=      5-min Rain = 0
KBO1 160257Z 15008KT 15/12 A3006 RMK A01 T01470115  RH  081%=      5-min Rain = 0
KBO1 160258Z 15008KT 15/12 A3006 RMK A01 T01470116  RH  081%=      5-min Rain = 0
KBO1 160259Z 15008KT 15/12 A3006 RMK A01 T01470115  RH  081%=      5-min Rain = 0
KBO1 160300Z 15008KT 15/12 A3006 RMK A01 T01460115  RH  082%=      5-min Rain = 0
KBO1 160301Z 15009KT 15/12 A3006 RMK A01 T01460115  RH  082%=      5-min Rain = 0
KBO1 160302Z 15008KT 15/12 A3006 RMK A01 T01460116  RH  082%=      5-min Rain = 0
KBO1 160303Z 15008KT 15/12 A3006 RMK A01 T01460115  RH  082%=      5-min Rain = 0
KBO1 160304Z 15009KT 15/12 A3006 RMK A01 T01450116  RH  082%=      5-min Rain = 0
KBO1 160305Z 15008KT 15/12 A3006 RMK A01 T01450115  RH  082%=      5-min Rain = 0
KBO1 160306Z 14008KT 15/12 A3006 RMK A01 T01450115  RH  082%=      5-min Rain = 0
KBO1 160307Z 15007KT 14/12 A3006 RMK A01 T01440115  RH  082%=      5-min Rain = 0
KBO1 160308Z 15008KT 14/11 A3006 RMK A01 T01440114  RH  082%=      5-min Rain = 0
KBO1 160309Z 14007KT 14/11 A3006 RMK A01 T01440114  RH  082%=      5-min Rain = 0
KBO1 160310Z 14007KT 14/12 A3006 RMK A01 T01440115  RH  082%=      5-min Rain = 0
KBO1 160311Z 14007KT 14/12 A3006 RMK A01 T01440115  RH  083%=      5-min Rain = 0
KBO1 160312Z 14007KT 14/11 A3007 RMK A01 T01440114  RH  082%=      5-min Rain = 0
KBO1 160313Z 15007KT 14/11 A3007 RMK A01 T01440113  RH  082%=      5-min Rain = 0
KBO1 160314Z 15006KT 15/11 A3007 RMK A01 T01450113  RH  081%=      5-min Rain = 0
KBO1 160315Z 15006KT 15/11 A3006 RMK A01 T01450113  RH  081%=      5-min Rain = 0
KBO1 160316Z 15007KT 15/11 A3006 RMK A01 T01450113  RH  081%=      5-min Rain = 0
KBO1 160317Z 14008KT 15/11 A3006 RMK A01 T01450113  RH  081%=      5-min Rain = 0
KBO1 160318Z 14008KT 15/11 A3007 RMK A01 T01450113  RH  081%=      5-min Rain = 0
KBO1 160319Z 15009KT 15/11 A3007 RMK A01 T01450113  RH  081%=      5-min Rain = 0
KBO1 160320Z 15009KT 15/11 A3007 RMK A01 T01450113  RH  081%=      5-min Rain = 0
KBO1 160326Z 15008KT 15/11 A3007 RMK A01 T01450114  RH  082%=      5-min Rain = 0
KBO1 160327Z 15009KT 15/12 A3007 RMK A01 T01450115  RH  082%=      5-min Rain = 0
KBO1 160328Z 16009KT 14/12 A3007 RMK A01 T01440115  RH  082%=      5-min Rain = 0
KBO1 160329Z 16008KT 14/11 A3007 RMK A01 T01440114  RH  082%=      5-min Rain = 0
KBO1 160330Z 16008KT 14/11 A3007 RMK A01 T01440114  RH  082%=      5-min Rain = 0
KBO1 160331Z 17008KT 14/11 A3007 RMK A01 T01440114  RH  082%=      5-min Rain = 0
KBO1 160332Z 17008KT 14/11 A3007 RMK A01 T01440113  RH  082%=      5-min Rain = 0
KBO1 160333Z 17008KT 14/11 A3007 RMK A01 T01440113  RH  082%=      5-min Rain = 0
KBO1 160334Z 17009KT 14/11 A3007 RMK A01 T01430113  RH  082%=      5-min Rain = 0
KBO1 160335Z 17009KT 14/11 A3007 RMK A01 T01430113  RH  082%=      5-min Rain = 0
KBO1 160336Z 17010KT 14/11 A3007 RMK A01 T01430112  RH  082%=      5-min Rain = 0
KBO1 160337Z 17010KT 14/11 A3007 RMK A01 T01430112  RH  082%=      5-min Rain = 0
KBO1 160338Z 17011KT 14/11 A3007 RMK A01 T01420111  RH  081%=      5-min Rain = 0
KBO1 160339Z 17011KT 14/11 A3007 RMK A01 T01420111  RH  081%=      5-min Rain = 0
KBO1 160340Z 17010KT 14/11 A3007 RMK A01 T01420111  RH  081%=      5-min Rain = 0
KBO1 160341Z 17010KT 14/11 A3007 RMK A01 T01420110  RH  081%=      5-min Rain = 0
KBO1 160342Z 17009KT 14/11 A3007 RMK A01 T01410111  RH  082%=      5-min Rain = 0
KBO1 160343Z 17009KT 14/11 A3007 RMK A01 T01410110  RH  082%=      5-min Rain = 0
KBO1 160344Z 17008KT 14/11 A3007 RMK A01 T01400110  RH  082%=      5-min Rain = 0
KBO1 160345Z 17009KT 14/11 A3007 RMK A01 T01410110  RH  082%=      5-min Rain = 0
KBO1 160346Z 18009KT 14/11 A3007 RMK A01 T01400110  RH  082%=      5-min Rain = 0
KBO1 160347Z 18009KT 14/11 A3007 RMK A01 T01400111  RH  082%=      5-min Rain = 0
KBO1 160348Z 18009KT 14/11 A3007 RMK A01 T01400111  RH  083%=      5-min Rain = 0
KBO1 160349Z 18008KT 14/11 A3007 RMK A01 T01400111  RH  082%=      5-min Rain = 0
KBO1 160350Z 17008KT 14/11 A3007 RMK A01 T01400111  RH  082%=      5-min Rain = 0
KBO1 160351Z 18008KT 14/11 A3007 RMK A01 T01400111  RH  082%=      5-min Rain = 0
KBO1 160352Z 17008KT 14/11 A3007 RMK A01 T01400111  RH  082%=      5-min Rain = 0
KBO1 160353Z 17008KT 14/11 A3007 RMK A01 T01400110  RH  082%=      5-min Rain = 0
KBO1 160354Z 17009KT 14/11 A3007 RMK A01 T01400109  RH  082%=      5-min Rain = 0
KBO1 160355Z 17009KT 14/11 A3007 RMK A01 T01410109  RH  082%=      5-min Rain = 0
KBO1 160356Z 17009KT 14/11 A3007 RMK A01 T01410110  RH  081%=      5-min Rain = 0
KBO1 160357Z 17010KT 14/11 A3007 RMK A01 T01410110  RH  082%=      5-min Rain = 0
KBO1 160358Z 17010KT 14/11 A3007 RMK A01 T01410110  RH  081%=      5-min Rain = 0
KBO1 160359Z 17009KT 14/11 A3007 RMK A01 T01410110  RH  082%=      5-min Rain = 0
KBO1 160400Z 17009KT 14/11 A3007 RMK A01 T01410110  RH  081%=      5-min Rain = 0
KBO1 160401Z 17010KT 14/11 A3008 RMK A01 T01410109  RH  081%=      5-min Rain = 0
KBO1 160402Z 17009KT 14/11 A3008 RMK A01 T01410109  RH  081%=      5-min Rain = 0
KBO1 160403Z 17009KT 14/11 A3008 RMK A01 T01420109  RH  081%=      5-min Rain = 0
KBO1 160404Z 17008KT 14/11 A3008 RMK A01 T01410109  RH  081%=      5-min Rain = 0
KBO1 160405Z 17008KT 14/11 A3008 RMK A01 T01410109  RH  081%=      5-min Rain = 0
KBO1 160406Z 17008KT 14/11 A3008 RMK A01 T01410110  RH  081%=      5-min Rain = 0
KBO1 160407Z 17008KT 14/11 A3008 RMK A01 T01410110  RH  081%=      5-min Rain = 0
KBO1 160408Z 16007KT 14/11 A3008 RMK A01 T01410109  RH  081%=      5-min Rain = 0
KBO1 160409Z 16007KT 14/11 A3008 RMK A01 T01410109  RH  081%=      5-min Rain = 0
KBO1 160410Z 16007KT 14/11 A3008 RMK A01 T01400108  RH  081%=      5-min Rain = 0
KBO1 160411Z 16007KT 14/11 A3008 RMK A01 T01410109  RH  081%=      5-min Rain = 0
KBO1 160412Z 16008KT 14/11 A3008 RMK A01 T01410109  RH  081%=      5-min Rain = 0
KBO1 160413Z 16008KT 14/11 A3008 RMK A01 T01410109  RH  081%=      5-min Rain = 0
KBO1 160414Z 16007KT 14/11 A3008 RMK A01 T01410109  RH  081%=      5-min Rain = 0
KBO1 160415Z 17007KT 14/11 A3008 RMK A01 T01410109  RH  081%=      5-min Rain = 0
KBO1 160416Z 16007KT 14/11 A3008 RMK A01 T01410110  RH  081%=      5-min Rain = 0
KBO1 160417Z 16007KT 14/11 A3008 RMK A01 T01410109  RH  081%=      5-min Rain = 0
KBO1 160418Z 16007KT 14/11 A3008 RMK A01 T01410109  RH  081%=      5-min Rain = 0
KBO1 160419Z 17007KT 14/11 A3009 RMK A01 T01420110  RH  081%=      5-min Rain = 0
KBO1 160420Z 17007KT 14/11 A3009 RMK A01 T01420110  RH  081%=      5-min Rain = 0
KBO1 160421Z 17006KT 14/11 A3009 RMK A01 T01420111  RH  082%=      5-min Rain = 0
KBO1 160422Z 17005KT 14/11 A3009 RMK A01 T01420111  RH  081%=      5-min Rain = 0
KBO1 160423Z 18005KT 14/11 A3009 RMK A01 T01420110  RH  081%=      5-min Rain = 0
KBO1 160424Z 18004KT 14/11 A3009 RMK A01 T01430111  RH  081%=      5-min Rain = 0
KBO1 160425Z 18004KT 14/11 A3009 RMK A01 T01430111  RH  082%=      5-min Rain = 0
KBO1 160426Z 18003KT 14/11 A3009 RMK A01 T01430112  RH  082%=      5-min Rain = 0
KBO1 160427Z 18003KT 14/11 A3009 RMK A01 T01430110  RH  081%=      5-min Rain = 0
KBO1 160428Z 19003KT 14/11 A3009 RMK A01 T01430109  RH  080%=      5-min Rain = 0
KBO1 160429Z 19003KT 14/11 A3009 RMK A01 T01430109  RH  080%=      5-min Rain = 0
KBO1 160430Z 18002KT 14/11 A3009 RMK A01 T01430109  RH  080%=      5-min Rain = 0
KBO1 160431Z 18002KT 14/11 A3009 RMK A01 T01430109  RH  080%=      5-min Rain = 0
KBO1 160432Z 18002KT 14/11 A3009 RMK A01 T01440109  RH  079%=      5-min Rain = 0
KBO1 160433Z 17003KT 14/11 A3009 RMK A01 T01440108  RH  079%=      5-min Rain = 0
KBO1 160434Z 16003KT 15/11 A3009 RMK A01 T01450110  RH  079%=      5-min Rain = 0
KBO1 160435Z 16003KT 15/11 A3009 RMK A01 T01450110  RH  080%=      5-min Rain = 0
KBO1 160436Z 16003KT 15/11 A3009 RMK A01 T01450111  RH  080%=      5-min Rain = 0
KBO1 160437Z 16003KT 15/11 A3009 RMK A01 T01450111  RH  080%=      5-min Rain = 0
KBO1 160438Z 16003KT 15/11 A3009 RMK A01 T01460112  RH  080%=      5-min Rain = 0
KBO1 160439Z 16003KT 15/11 A3009 RMK A01 T01460112  RH  080%=      5-min Rain = 0
KBO1 160440Z 15003KT 15/11 A3009 RMK A01 T01460112  RH  080%=      5-min Rain = 0
KBO1 160441Z 15003KT 15/11 A3009 RMK A01 T01460111  RH  080%=      5-min Rain = 0
KBO1 160442Z 15003KT 15/11 A3009 RMK A01 T01470111  RH  079%=      5-min Rain = 0
KBO1 160443Z 14003KT 15/11 A3009 RMK A01 T01470111  RH  079%=      5-min Rain = 0
KBO1 160444Z 14003KT 15/11 A3009 RMK A01 T01470111  RH  079%=      5-min Rain = 0
KBO1 160445Z 14003KT 15/11 A3009 RMK A01 T01470111  RH  079%=      5-min Rain = 0
KBO1 160446Z 13002KT 15/11 A3009 RMK A01 T01470112  RH  079%=      5-min Rain = 0
KBO1 160447Z 13002KT 15/11 A3009 RMK A01 T01470113  RH  080%=      5-min Rain = 0
KBO1 160448Z 14003KT 15/11 A3009 RMK A01 T01470113  RH  080%=      5-min Rain = 0
KBO1 160449Z 15003KT 15/11 A3009 RMK A01 T01480113  RH  080%=      5-min Rain = 0
KBO1 160450Z 15003KT 15/11 A3009 RMK A01 T01480112  RH  079%=      5-min Rain = 0
KBO1 160451Z 15003KT 15/11 A3009 RMK A01 T01490113  RH  079%=      5-min Rain = 0
KBO1 160452Z 14004KT 15/12 A3009 RMK A01 T01490115  RH  080%=      5-min Rain = 0
KBO1 160453Z 13004KT 15/11 A3009 RMK A01 T01490113  RH  079%=      5-min Rain = 0
KBO1 160454Z 13004KT 15/11 A3009 RMK A01 T01500114  RH  079%=      5-min Rain = 0
KBO1 160455Z 12004KT 15/11 A3009 RMK A01 T01500111  RH  078%=      5-min Rain = 0
KBO1 160456Z 12003KT 15/11 A3008 RMK A01 T01500111  RH  078%=      5-min Rain = 0
KBO1 160457Z 12003KT 15/11 A3008 RMK A01 T01500109  RH  076%=      5-min Rain = 0
KBO1 160458Z 11002KT 15/11 A3008 RMK A01 T01500106  RH  075%=      5-min Rain = 0
KBO1 160459Z 10002KT 15/11 A3008 RMK A01 T01510105  RH  074%=      5-min Rain = 0

Page generated in 0.124 seconds.